
Distance (Route):
Temperature : 10.6°C
Humidity : 25.9%
Pressure : 0hPa| Receiver | Frames | First received | Last received |
|---|---|---|---|
| KE7DJD | 538 | 2026-08-31 17:03:32 | 2026-08-31 20:12:20 |
| Receiver | Date | Latitude | Longitude | Direction | Speed | Altitude | Climb | Temperature | Humidity | Pressure | Voltage | Killtimer | Uptime | BKT | XDATA |
|---|---|---|---|---|---|---|---|---|---|---|---|---|---|---|---|
| KE7DJD | 2026-08-31 20:12:20 | 44.05034 | -115.82123 | 52° | 24km/h | 2758m | -2.3m/s | 10.6°C | 25.9% | 0hPa | 0V | 06:59:00 | 00:00:00 | 00:00:00 | |
| KE7DJD | 2026-08-31 20:12:00 | 44.04969 | -115.82242 | 56° | 22km/h | 2804m | -2.5m/s | 10.1°C | 26.5% | 0hPa | 0V | 07:00:00 | 00:00:00 | 00:00:00 | |
| KE7DJD | 2026-08-31 20:11:39 | 44.04902 | -115.82361 | 49° | 24km/h | 2856m | -2.4m/s | 9.7°C | 26.6% | 0hPa | 0V | 07:00:00 | 00:00:00 | 00:00:00 | |
| KE7DJD | 2026-08-31 20:11:18 | 44.04829 | -115.82502 | 58° | 22km/h | 2906m | -2.3m/s | 9.4°C | 28.3% | 0hPa | 0V | 07:00:00 | 00:00:00 | 00:00:00 | |
| KE7DJD | 2026-08-31 20:10:58 | 44.04762 | -115.82634 | 60° | 22km/h | 2950m | -2.1m/s | 9.0°C | 29.4% | 0hPa | 0V | 07:00:00 | 00:00:00 | 00:00:00 | |
| KE7DJD | 2026-08-31 20:10:37 | 44.04690 | -115.82773 | 54° | 26km/h | 2995m | -2.3m/s | 8.6°C | 30.2% | 0hPa | 0V | 07:00:00 | 00:00:00 | 00:00:00 | |
| KE7DJD | 2026-08-31 20:10:17 | 44.04621 | -115.82908 | 57° | 24km/h | 3042m | -2.9m/s | 8.2°C | 29.9% | 0hPa | 0V | 07:01:00 | 00:00:00 | 00:00:00 | |
| KE7DJD | 2026-08-31 20:09:57 | 44.04580 | -115.83036 | 70° | 18km/h | 3105m | -3.1m/s | 7.6°C | 30.8% | 0hPa | 0V | 07:01:00 | 00:00:00 | 00:00:00 | |
| KE7DJD | 2026-08-31 20:09:36 | 44.04553 | -115.83162 | 77° | 15km/h | 3157m | -1.7m/s | 7.2°C | 31.2% | 0hPa | 0V | 07:02:00 | 00:00:00 | 00:00:00 | |
| KE7DJD | 2026-08-31 20:09:16 | 44.04523 | -115.83261 | 72° | 13km/h | 3193m | -1.9m/s | 6.8°C | 31.9% | 0hPa | 0V | 07:02:00 | 00:00:00 | 00:00:00 | |
| KE7DJD | 2026-08-31 20:08:55 | 44.04491 | -115.83356 | 57° | 16km/h | 3237m | -3.5m/s | 6.2°C | 33.0% | 0hPa | 0V | 07:02:00 | 00:00:00 | 00:00:00 | |
| KE7DJD | 2026-08-31 20:08:35 | 44.04462 | -115.83430 | 63° | 15km/h | 3283m | -2.1m/s | 5.9°C | 34.2% | 0hPa | 0V | 07:03:00 | 00:00:00 | 00:00:00 | |
| KE7DJD | 2026-08-31 20:08:15 | 44.04431 | -115.83514 | 56° | 13km/h | 3323m | -2.1m/s | 5.5°C | 32.5% | 0hPa | 0V | 07:03:00 | 00:00:00 | 00:00:00 | |
| KE7DJD | 2026-08-31 20:07:54 | 44.04405 | -115.83594 | 66° | 11km/h | 3376m | -2.6m/s | 5.0°C | 33.4% | 0hPa | 0V | 07:04:00 | 00:00:00 | 00:00:00 | |
| KE7DJD | 2026-08-31 20:07:33 | 44.04384 | -115.83669 | 61° | 11km/h | 3431m | -2.5m/s | 4.6°C | 33.7% | 0hPa | 0V | 07:04:00 | 00:00:00 | 00:00:00 | |
| KE7DJD | 2026-08-31 20:07:12 | 44.04352 | -115.83736 | 47° | 9km/h | 3485m | -2.6m/s | 4.3°C | 31.6% | 0hPa | 0V | 07:05:00 | 00:00:00 | 00:00:00 | |
| KE7DJD | 2026-08-31 20:06:52 | 44.04321 | -115.83797 | 70° | 11km/h | 3535m | -2.5m/s | 3.7°C | 31.5% | 0hPa | 0V | 07:05:00 | 00:00:00 | 00:00:00 | |
| KE7DJD | 2026-08-31 20:06:32 | 44.04288 | -115.83865 | 67° | 13km/h | 3585m | -2.7m/s | 3.5°C | 30.4% | 0hPa | 0V | 07:05:00 | 00:00:00 | 00:00:00 | |
| KE7DJD | 2026-08-31 20:05:51 | 44.04201 | -115.84051 | 59° | 16km/h | 3690m | -2.8m/s | 2.9°C | 32.6% | 0hPa | 0V | 07:06:00 | 00:00:00 | 00:00:00 | |
| KE7DJD | 2026-08-31 20:05:30 | 44.04143 | -115.84163 | 49° | 20km/h | 3746m | -2.4m/s | 2.4°C | 33.7% | 0hPa | 0V | 07:06:00 | 00:00:00 | 00:00:00 | |
| KE7DJD | 2026-08-31 20:04:49 | 44.04005 | -115.84411 | 52° | 22km/h | 3851m | -2.5m/s | 1.6°C | 30.2% | 0hPa | 0V | 07:06:00 | 00:00:00 | 00:00:00 | |
| KE7DJD | 2026-08-31 20:04:28 | 44.03932 | -115.84560 | 55° | 27km/h | 3901m | -2.2m/s | 1.3°C | 31.7% | 0hPa | 0V | 07:07:00 | 00:00:00 | 00:00:00 | |
| KE7DJD | 2026-08-31 20:04:07 | 44.03853 | -115.84723 | 58° | 29km/h | 3947m | -2.0m/s | 1.0°C | 31.3% | 0hPa | 0V | 07:07:00 | 00:00:00 | 00:00:00 | |
| KE7DJD | 2026-08-31 20:03:47 | 44.03780 | -115.84896 | 60° | 29km/h | 3987m | -1.7m/s | 0.8°C | 30.8% | 0hPa | 0V | 07:08:00 | 00:00:00 | 00:00:00 | |
| KE7DJD | 2026-08-31 20:03:27 | 44.03711 | -115.85084 | 67° | 31km/h | 4023m | -1.7m/s | 0.5°C | 32.4% | 0hPa | 0V | 07:08:00 | 00:00:00 | 00:00:00 | |
| KE7DJD | 2026-08-31 20:03:06 | 44.03637 | -115.85295 | 66° | 31km/h | 4059m | -1.7m/s | 0.3°C | 32.6% | 0hPa | 0V | 07:08:00 | 00:00:00 | 00:00:00 | |
| KE7DJD | 2026-08-31 20:02:46 | 44.03572 | -115.85494 | 68° | 31km/h | 4093m | -1.8m/s | 0.2°C | 27.7% | 0hPa | 0V | 07:09:00 | 00:00:00 | 00:00:00 | |
| KE7DJD | 2026-08-31 20:02:26 | 44.03505 | -115.85692 | 65° | 29km/h | 4130m | -1.6m/s | 0.0°C | 22.6% | 0hPa | 0V | 07:09:00 | 00:00:00 | 00:00:00 | |
| KE7DJD | 2026-08-31 20:02:05 | 44.03446 | -115.85882 | 68° | 29km/h | 4165m | -1.7m/s | 0.1°C | 17.5% | 0hPa | 0V | 07:10:00 | 00:00:00 | 00:00:00 | |
| KE7DJD | 2026-08-31 20:01:44 | 44.03385 | -115.86103 | 69° | 33km/h | 4202m | -1.8m/s | 0.3°C | 18.9% | 0hPa | 0V | 07:10:00 | 00:00:00 | 00:00:00 | |
| KE7DJD | 2026-08-31 20:01:24 | 44.03316 | -115.86322 | 66° | 35km/h | 4239m | -1.9m/s | 0.4°C | 7.4% | 0hPa | 0V | 07:10:00 | 00:00:00 | 00:00:00 | |
| KE7DJD | 2026-08-31 20:01:04 | 44.03237 | -115.86527 | 63° | 31km/h | 4279m | -2.1m/s | 0.4°C | 3.4% | 0hPa | 0V | 07:11:00 | 00:00:00 | 00:00:00 | |
| KE7DJD | 2026-08-31 20:00:43 | 44.03171 | -115.86740 | 69° | 31km/h | 4324m | -2.2m/s | 0.4°C | 8.8% | 0hPa | 0V | 07:11:00 | 00:00:00 | 00:00:00 | |
| KE7DJD | 2026-08-31 20:00:22 | 44.03119 | -115.86960 | 71° | 31km/h | 4371m | -2.5m/s | -0.0°C | 34.2% | 0hPa | 0V | 07:12:00 | 00:00:00 | 00:00:00 | |
| KE7DJD | 2026-08-31 19:59:41 | 44.03016 | -115.87389 | 67° | 31km/h | 4472m | -2.7m/s | -0.7°C | 38.8% | 0hPa | 0V | 07:12:00 | 00:00:00 | 00:00:00 | |
| KE7DJD | 2026-08-31 19:59:20 | 44.02960 | -115.87598 | 68° | 27km/h | 4527m | -2.6m/s | -1.1°C | 39.4% | 0hPa | 0V | 07:12:00 | 00:00:00 | 00:00:00 | |
| KE7DJD | 2026-08-31 19:59:00 | 44.02910 | -115.87789 | 70° | 31km/h | 4581m | -2.7m/s | -1.6°C | 40.2% | 0hPa | 0V | 07:12:00 | 00:00:00 | 00:00:00 | |
| KE7DJD | 2026-08-31 19:58:39 | 44.02850 | -115.87993 | 65° | 31km/h | 4639m | -2.7m/s | -1.9°C | 40.2% | 0hPa | 0V | 07:13:00 | 00:00:00 | 00:00:00 | |
| KE7DJD | 2026-08-31 19:58:19 | 44.02782 | -115.88182 | 67° | 31km/h | 4696m | -2.9m/s | -2.3°C | 40.0% | 0hPa | 0V | 07:13:00 | 00:00:00 | 00:00:00 | |
| KE7DJD | 2026-08-31 19:57:59 | 44.02710 | -115.88374 | 63° | 29km/h | 4752m | -2.9m/s | -2.7°C | 39.9% | 0hPa | 0V | 07:13:00 | 00:00:00 | 00:00:00 | |
| KE7DJD | 2026-08-31 19:57:38 | 44.02631 | -115.88576 | 65° | 31km/h | 4811m | -2.7m/s | -3.3°C | 41.8% | 0hPa | 0V | 07:14:00 | 00:00:00 | 00:00:00 | |
| KE7DJD | 2026-08-31 19:57:17 | 44.02551 | -115.88779 | 61° | 33km/h | 4869m | -2.8m/s | -3.8°C | 42.8% | 0hPa | 0V | 07:14:00 | 00:00:00 | 00:00:00 | |
| KE7DJD | 2026-08-31 19:56:56 | 44.02460 | -115.88988 | 58° | 33km/h | 4926m | -2.7m/s | -4.2°C | 42.1% | 0hPa | 0V | 07:15:00 | 00:00:00 | 00:00:00 | |
| KE7DJD | 2026-08-31 19:56:35 | 44.02367 | -115.89196 | 57° | 33km/h | 4980m | -2.5m/s | -4.7°C | 41.8% | 0hPa | 0V | 07:15:00 | 00:00:00 | 00:00:00 | |
| KE7DJD | 2026-08-31 19:56:15 | 44.02273 | -115.89395 | 56° | 35km/h | 5030m | -2.3m/s | -5.1°C | 43.0% | 0hPa | 0V | 07:15:00 | 00:00:00 | 00:00:00 | |
| KE7DJD | 2026-08-31 19:55:54 | 44.02173 | -115.89606 | 58° | 33km/h | 5079m | -2.3m/s | -5.4°C | 41.6% | 0hPa | 0V | 07:16:00 | 00:00:00 | 00:00:00 | |
| KE7DJD | 2026-08-31 19:55:34 | 44.02079 | -115.89805 | 56° | 33km/h | 5126m | -2.2m/s | -5.6°C | 40.9% | 0hPa | 0V | 07:16:00 | 00:00:00 | 00:00:00 | |
| KE7DJD | 2026-08-31 19:55:14 | 44.01990 | -115.89999 | 57° | 33km/h | 5171m | -2.2m/s | -5.9°C | 41.2% | 0hPa | 0V | 07:17:00 | 00:00:00 | 00:00:00 | |
| KE7DJD | 2026-08-31 19:54:53 | 44.01899 | -115.90202 | 61° | 31km/h | 5218m | -2.3m/s | -6.3°C | 42.0% | 0hPa | 0V | 07:17:00 | 00:00:00 | 00:00:00 | |
| KE7DJD | 2026-08-31 19:54:34 | 44.01815 | -115.90388 | 57° | 29km/h | 5264m | -2.3m/s | -6.6°C | 42.5% | 0hPa | 0V | 07:17:00 | 00:00:00 | 00:00:00 | |
| KE7DJD | 2026-08-31 19:54:12 | 44.01728 | -115.90574 | 61° | 29km/h | 5312m | -2.3m/s | -6.9°C | 43.9% | 0hPa | 0V | 07:17:00 | 00:00:00 | 00:00:00 | |
| KE7DJD | 2026-08-31 19:53:52 | 44.01651 | -115.90748 | 61° | 29km/h | 5359m | -2.5m/s | -7.3°C | 44.1% | 0hPa | 0V | 07:17:00 | 00:00:00 | 00:00:00 | |
| KE7DJD | 2026-08-31 19:53:31 | 44.01569 | -115.90934 | 60° | 31km/h | 5410m | -2.5m/s | -7.7°C | 44.8% | 0hPa | 0V | 07:18:00 | 00:00:00 | 00:00:00 | |
| KE7DJD | 2026-08-31 19:53:10 | 44.01486 | -115.91122 | 59° | 29km/h | 5461m | -2.4m/s | -8.2°C | 45.5% | 0hPa | 0V | 07:18:00 | 00:00:00 | 00:00:00 | |
| KE7DJD | 2026-08-31 19:52:49 | 44.01404 | -115.91309 | 61° | 31km/h | 5513m | -2.6m/s | -8.6°C | 46.4% | 0hPa | 0V | 07:18:00 | 00:00:00 | 00:00:00 | |
| KE7DJD | 2026-08-31 19:52:29 | 44.01319 | -115.91488 | 59° | 31km/h | 5563m | -2.7m/s | -9.0°C | 46.2% | 0hPa | 0V | 07:19:00 | 00:00:00 | 00:00:00 | |
| KE7DJD | 2026-08-31 19:52:08 | 44.01223 | -115.91672 | 51° | 33km/h | 5616m | -2.6m/s | -9.4°C | 45.0% | 0hPa | 0V | 07:19:00 | 00:00:00 | 00:00:00 | |
| KE7DJD | 2026-08-31 19:51:48 | 44.01119 | -115.91842 | 48° | 33km/h | 5667m | -2.6m/s | -9.8°C | 46.2% | 0hPa | 0V | 07:20:00 | 00:00:00 | 00:00:00 | |
| KE7DJD | 2026-08-31 19:51:27 | 44.01002 | -115.92022 | 47° | 33km/h | 5721m | -2.7m/s | -10.2°C | 45.5% | 0hPa | 0V | 07:20:00 | 00:00:00 | 00:00:00 | |
| KE7DJD | 2026-08-31 19:51:06 | 44.00869 | -115.92200 | 44° | 37km/h | 5775m | -2.6m/s | -10.3°C | 40.9% | 0hPa | 0V | 07:20:00 | 00:00:00 | 00:00:00 | |
| KE7DJD | 2026-08-31 19:50:46 | 44.00730 | -115.92374 | 42° | 40km/h | 5827m | -2.6m/s | -10.7°C | 42.3% | 0hPa | 0V | 07:21:00 | 00:00:00 | 00:00:00 | |
| KE7DJD | 2026-08-31 19:50:25 | 44.00575 | -115.92566 | 42° | 38km/h | 5883m | -2.8m/s | -11.0°C | 42.0% | 0hPa | 0V | 07:21:00 | 00:00:00 | 00:00:00 | |
| KE7DJD | 2026-08-31 19:50:05 | 44.00430 | -115.92756 | 44° | 38km/h | 5939m | -3.0m/s | -11.1°C | 41.6% | 0hPa | 0V | 07:22:00 | 00:00:00 | 00:00:00 | |
| KE7DJD | 2026-08-31 19:49:44 | 44.00276 | -115.92963 | 43° | 42km/h | 5998m | -3.2m/s | -11.5°C | 42.2% | 0hPa | 0V | 07:22:00 | 00:00:00 | 00:00:00 | |
| KE7DJD | 2026-08-31 19:49:24 | 44.00116 | -115.93161 | 42° | 44km/h | 6056m | -2.7m/s | -11.9°C | 42.7% | 0hPa | 0V | 07:22:00 | 00:00:00 | 00:00:00 | |
| KE7DJD | 2026-08-31 19:49:04 | 43.99951 | -115.93367 | 41° | 47km/h | 6109m | -2.7m/s | -12.2°C | 43.4% | 0hPa | 0V | 07:23:00 | 00:00:00 | 00:00:00 | |
| KE7DJD | 2026-08-31 19:48:44 | 43.99768 | -115.93573 | 38° | 49km/h | 6163m | -2.7m/s | -12.5°C | 43.7% | 0hPa | 0V | 07:23:00 | 00:00:00 | 00:00:00 | |
| KE7DJD | 2026-08-31 19:48:23 | 43.99585 | -115.93766 | 41° | 38km/h | 6217m | -2.6m/s | -12.4°C | 39.4% | 0hPa | 0V | 07:23:00 | 00:00:00 | 00:00:00 | |
| KE7DJD | 2026-08-31 19:48:02 | 43.99427 | -115.93942 | 37° | 40km/h | 6272m | -2.7m/s | -12.9°C | 40.7% | 0hPa | 0V | 07:23:00 | 00:00:00 | 00:00:00 | |
| KE7DJD | 2026-08-31 19:47:41 | 43.99266 | -115.94114 | 41° | 37km/h | 6322m | -2.0m/s | -13.4°C | 41.7% | 0hPa | 0V | 07:23:00 | 00:00:00 | 00:00:00 | |
| KE7DJD | 2026-08-31 19:47:20 | 43.99103 | -115.94286 | 38° | 37km/h | 6363m | -2.3m/s | -13.8°C | 42.9% | 0hPa | 0V | 07:24:00 | 00:00:00 | 00:00:00 | |
| KE7DJD | 2026-08-31 19:46:59 | 43.98947 | -115.94461 | 41° | 37km/h | 6407m | -2.0m/s | -14.2°C | 44.2% | 0hPa | 0V | 07:24:00 | 00:00:00 | 00:00:00 | |
| KE7DJD | 2026-08-31 19:46:38 | 43.98798 | -115.94630 | 38° | 37km/h | 6457m | -2.6m/s | -14.6°C | 44.7% | 0hPa | 0V | 07:25:00 | 00:00:00 | 00:00:00 | |
| KE7DJD | 2026-08-31 19:46:18 | 43.98662 | -115.94769 | 35° | 35km/h | 6505m | -2.4m/s | -14.6°C | 43.0% | 0hPa | 0V | 07:25:00 | 00:00:00 | 00:00:00 | |
| KE7DJD | 2026-08-31 19:45:57 | 43.98519 | -115.94916 | 39° | 31km/h | 6553m | -2.3m/s | -14.6°C | 41.5% | 0hPa | 0V | 07:26:00 | 00:00:00 | 00:00:00 | |
| KE7DJD | 2026-08-31 19:45:36 | 43.98387 | -115.95051 | 36° | 31km/h | 6602m | -2.3m/s | -15.1°C | 42.6% | 0hPa | 0V | 07:26:00 | 00:00:00 | 00:00:00 | |
| KE7DJD | 2026-08-31 19:45:15 | 43.98271 | -115.95192 | 50° | 27km/h | 6648m | -2.1m/s | -15.3°C | 43.1% | 0hPa | 0V | 07:26:00 | 00:00:00 | 00:00:00 | |
| KE7DJD | 2026-08-31 19:44:55 | 43.98183 | -115.95332 | 53° | 29km/h | 6690m | -2.2m/s | -15.3°C | 40.5% | 0hPa | 0V | 07:27:00 | 00:00:00 | 00:00:00 | |
| KE7DJD | 2026-08-31 19:44:34 | 43.98095 | -115.95484 | 56° | 24km/h | 6735m | -2.2m/s | -15.6°C | 40.7% | 0hPa | 0V | 07:27:00 | 00:00:00 | 00:00:00 | |
| KE7DJD | 2026-08-31 19:44:14 | 43.98010 | -115.95638 | 55° | 31km/h | 6779m | -2.2m/s | -15.9°C | 39.3% | 0hPa | 0V | 07:28:00 | 00:00:00 | 00:00:00 | |
| KE7DJD | 2026-08-31 19:43:53 | 43.97907 | -115.95799 | 48° | 27km/h | 6827m | -2.3m/s | -16.0°C | 36.7% | 0hPa | 0V | 07:28:00 | 00:00:00 | 00:00:00 | |
| KE7DJD | 2026-08-31 19:43:32 | 43.97808 | -115.95945 | 46° | 29km/h | 6878m | -2.5m/s | -16.5°C | 37.8% | 0hPa | 0V | 07:28:00 | 00:00:00 | 00:00:00 | |
| KE7DJD | 2026-08-31 19:43:11 | 43.97704 | -115.96087 | 47° | 27km/h | 6932m | -2.7m/s | -17.0°C | 38.9% | 0hPa | 0V | 07:29:00 | 00:00:00 | 00:00:00 | |
| KE7DJD | 2026-08-31 19:42:51 | 43.97601 | -115.96217 | 44° | 27km/h | 6985m | -2.6m/s | -17.4°C | 39.3% | 0hPa | 0V | 07:29:00 | 00:00:00 | 00:00:00 | |
| KE7DJD | 2026-08-31 19:42:30 | 43.97485 | -115.96351 | 41° | 27km/h | 7041m | -2.8m/s | -17.8°C | 39.7% | 0hPa | 0V | 07:29:00 | 00:00:00 | 00:00:00 | |
| KE7DJD | 2026-08-31 19:42:09 | 43.97365 | -115.96483 | 36° | 29km/h | 7098m | -2.6m/s | -18.3°C | 40.6% | 0hPa | 0V | 07:29:00 | 00:00:00 | 00:00:00 | |
| KE7DJD | 2026-08-31 19:41:48 | 43.97245 | -115.96603 | 39° | 27km/h | 7155m | -2.9m/s | -18.7°C | 42.0% | 0hPa | 0V | 07:29:00 | 00:00:00 | 00:00:00 | |
| KE7DJD | 2026-08-31 19:41:27 | 43.97131 | -115.96725 | 40° | 26km/h | 7212m | -2.7m/s | -19.1°C | 42.7% | 0hPa | 0V | 07:30:00 | 00:00:00 | 00:00:00 | |
| KE7DJD | 2026-08-31 19:41:07 | 43.97024 | -115.96841 | 44° | 29km/h | 7267m | -2.8m/s | -19.4°C | 42.7% | 0hPa | 0V | 07:30:00 | 00:00:00 | 00:00:00 | |
| KE7DJD | 2026-08-31 19:40:46 | 43.96912 | -115.96967 | 37° | 26km/h | 7325m | -2.9m/s | -19.7°C | 41.2% | 0hPa | 0V | 07:31:00 | 00:00:00 | 00:00:00 | |
| KE7DJD | 2026-08-31 19:40:25 | 43.96795 | -115.97082 | 32° | 26km/h | 7383m | -2.9m/s | -20.1°C | 42.2% | 0hPa | 0V | 07:31:00 | 00:00:00 | 00:00:00 | |
| KE7DJD | 2026-08-31 19:40:04 | 43.96681 | -115.97195 | 38° | 27km/h | 7444m | -3.0m/s | -20.6°C | 43.8% | 0hPa | 0V | 07:31:00 | 00:00:00 | 00:00:00 | |
| KE7DJD | 2026-08-31 19:39:44 | 43.96577 | -115.97300 | 34° | 26km/h | 7501m | -3.0m/s | -21.1°C | 45.0% | 0hPa | 0V | 07:32:00 | 00:00:00 | 00:00:00 | |
| KE7DJD | 2026-08-31 19:39:23 | 43.96473 | -115.97413 | 37° | 27km/h | 7561m | -2.9m/s | -21.6°C | 45.4% | 0hPa | 0V | 07:32:00 | 00:00:00 | 00:00:00 | |
| KE7DJD | 2026-08-31 19:39:02 | 43.96362 | -115.97520 | 36° | 27km/h | 7621m | -2.8m/s | -22.0°C | 45.1% | 0hPa | 0V | 07:33:00 | 00:00:00 | 00:00:00 | |
| KE7DJD | 2026-08-31 19:38:42 | 43.96251 | -115.97623 | 31° | 27km/h | 7678m | -2.9m/s | -22.4°C | 46.3% | 0hPa | 0V | 07:33:00 | 00:00:00 | 00:00:00 | |
| KE7DJD | 2026-08-31 19:38:21 | 43.96128 | -115.97726 | 32° | 29km/h | 7739m | -3.1m/s | -22.9°C | 46.6% | 0hPa | 0V | 07:33:00 | 00:00:00 | 00:00:00 | |
| KE7DJD | 2026-08-31 19:38:01 | 43.96009 | -115.97823 | 25° | 27km/h | 7797m | -2.8m/s | -23.1°C | 44.4% | 0hPa | 0V | 07:34:00 | 00:00:00 | 00:00:00 | |
| KE7DJD | 2026-08-31 19:37:41 | 43.95889 | -115.97906 | 30° | 24km/h | 7856m | -3.2m/s | -23.4°C | 42.5% | 0hPa | 0V | 07:34:00 | 00:00:00 | 00:00:00 | |
| KE7DJD | 2026-08-31 19:37:20 | 43.95767 | -115.97991 | 28° | 24km/h | 7918m | -2.9m/s | -23.9°C | 40.7% | 0hPa | 0V | 07:34:00 | 00:00:00 | 00:00:00 | |
| KE7DJD | 2026-08-31 19:36:59 | 43.95655 | -115.98069 | 25° | 22km/h | 7980m | -2.8m/s | -24.3°C | 36.9% | 0hPa | 0V | 07:34:00 | 00:00:00 | 00:00:00 | |
| KE7DJD | 2026-08-31 19:36:38 | 43.95553 | -115.98147 | 27° | 22km/h | 8042m | -2.9m/s | -24.8°C | 36.5% | 0hPa | 0V | 07:34:00 | 00:00:00 | 00:00:00 | |
| KE7DJD | 2026-08-31 19:36:18 | 43.95458 | -115.98228 | 34° | 20km/h | 8100m | -2.9m/s | -25.3°C | 38.2% | 0hPa | 0V | 07:35:00 | 00:00:00 | 00:00:00 | |
| KE7DJD | 2026-08-31 19:35:57 | 43.95354 | -115.98317 | 33° | 24km/h | 8161m | -2.9m/s | -25.8°C | 39.9% | 0hPa | 0V | 07:35:00 | 00:00:00 | 00:00:00 | |
| KE7DJD | 2026-08-31 19:35:36 | 43.95247 | -115.98411 | 30° | 24km/h | 8223m | -3.1m/s | -26.3°C | 41.9% | 0hPa | 0V | 07:36:00 | 00:00:00 | 00:00:00 | |
| KE7DJD | 2026-08-31 19:35:15 | 43.95130 | -115.98506 | 28° | 27km/h | 8285m | -3.1m/s | -26.8°C | 42.3% | 0hPa | 0V | 07:36:00 | 00:00:00 | 00:00:00 | |
| KE7DJD | 2026-08-31 19:34:54 | 43.95005 | -115.98593 | 25° | 27km/h | 8348m | -2.9m/s | -27.4°C | 43.2% | 0hPa | 0V | 07:37:00 | 00:00:00 | 00:00:00 | |
| KE7DJD | 2026-08-31 19:34:33 | 43.94883 | -115.98673 | 28° | 27km/h | 8410m | -3.2m/s | -27.9°C | 43.8% | 0hPa | 0V | 07:37:00 | 00:00:00 | 00:00:00 | |
| KE7DJD | 2026-08-31 19:34:12 | 43.94768 | -115.98749 | 26° | 26km/h | 8473m | -3.2m/s | -28.5°C | 41.4% | 0hPa | 0V | 07:37:00 | 00:00:00 | 00:00:00 | |
| KE7DJD | 2026-08-31 19:33:52 | 43.94659 | -115.98802 | 12° | 22km/h | 8534m | -3.0m/s | -28.9°C | 39.6% | 0hPa | 0V | 07:38:00 | 00:00:00 | 00:00:00 | |
| KE7DJD | 2026-08-31 19:33:31 | 43.94543 | -115.98849 | 13° | 22km/h | 8599m | -3.1m/s | -29.5°C | 41.9% | 0hPa | 0V | 07:38:00 | 00:00:00 | 00:00:00 | |
| KE7DJD | 2026-08-31 19:33:11 | 43.94432 | -115.98888 | 14° | 24km/h | 8660m | -3.1m/s | -30.0°C | 38.6% | 0hPa | 0V | 07:39:00 | 00:00:00 | 00:00:00 | |
| KE7DJD | 2026-08-31 19:32:50 | 43.94315 | -115.98922 | 20° | 22km/h | 8726m | -3.1m/s | -30.6°C | 36.1% | 0hPa | 0V | 07:39:00 | 00:00:00 | 00:00:00 | |
| KE7DJD | 2026-08-31 19:32:30 | 43.94205 | -115.98952 | 4° | 24km/h | 8790m | -3.3m/s | -31.1°C | 40.1% | 0hPa | 0V | 07:39:00 | 00:00:00 | 00:00:00 | |
| KE7DJD | 2026-08-31 19:32:09 | 43.94085 | -115.98981 | 10° | 22km/h | 8857m | -3.3m/s | -31.7°C | 44.7% | 0hPa | 0V | 07:40:00 | 00:00:00 | 00:00:00 | |
| KE7DJD | 2026-08-31 19:31:48 | 43.93957 | -115.98990 | 354° | 29km/h | 8926m | -3.4m/s | -32.0°C | 38.0% | 0hPa | 0V | 07:40:00 | 00:00:00 | 00:00:00 | |
| KE7DJD | 2026-08-31 19:31:27 | 43.93804 | -115.98981 | 357° | 27km/h | 8994m | -3.2m/s | -32.5°C | 33.0% | 0hPa | 0V | 07:40:00 | 00:00:00 | 00:00:00 | |
| KE7DJD | 2026-08-31 19:31:07 | 43.93655 | -115.98965 | 353° | 29km/h | 9060m | -3.3m/s | -33.0°C | 36.2% | 0hPa | 0V | 07:40:00 | 00:00:00 | 00:00:00 | |
| KE7DJD | 2026-08-31 19:30:46 | 43.93495 | -115.98949 | 8° | 31km/h | 9130m | -3.3m/s | -33.6°C | 38.6% | 0hPa | 0V | 07:40:00 | 00:00:00 | 00:00:00 | |
| KE7DJD | 2026-08-31 19:30:26 | 43.93343 | -115.98937 | 353° | 26km/h | 9198m | -3.5m/s | -34.3°C | 40.7% | 0hPa | 0V | 07:41:00 | 00:00:00 | 00:00:00 | |
| KE7DJD | 2026-08-31 19:30:05 | 43.93184 | -115.98910 | 347° | 33km/h | 9269m | -3.7m/s | -35.0°C | 41.2% | 0hPa | 0V | 07:41:00 | 00:00:00 | 00:00:00 | |
| KE7DJD | 2026-08-31 19:29:45 | 43.93036 | -115.98875 | 3° | 29km/h | 9337m | -3.6m/s | -35.3°C | 32.5% | 0hPa | 0V | 07:42:00 | 00:00:00 | 00:00:00 | |
| KE7DJD | 2026-08-31 19:29:04 | 43.92793 | -115.98835 | 344° | 20km/h | 9476m | -3.7m/s | -36.4°C | 35.4% | 0hPa | 0V | 07:42:00 | 00:00:00 | 00:00:00 | |
| KE7DJD | 2026-08-31 19:28:43 | 43.92679 | -115.98820 | 361° | 22km/h | 9548m | -3.2m/s | -37.1°C | 36.9% | 0hPa | 0V | 07:43:00 | 00:00:00 | 00:00:00 | |
| KE7DJD | 2026-08-31 19:28:23 | 43.92580 | -115.98820 | 7° | 20km/h | 9617m | -3.6m/s | -37.7°C | 42.0% | 0hPa | 0V | 07:43:00 | 00:00:00 | 00:00:00 | |
| KE7DJD | 2026-08-31 19:28:02 | 43.92484 | -115.98820 | 348° | 15km/h | 9690m | -3.6m/s | -38.4°C | 51.5% | 0hPa | 0V | 07:44:00 | 00:00:00 | 00:00:00 | |
| KE7DJD | 2026-08-31 19:27:41 | 43.92411 | -115.98797 | 317° | 15km/h | 9766m | -3.9m/s | -39.0°C | 53.3% | 0hPa | 0V | 07:44:00 | 00:00:00 | 00:00:00 | |
| KE7DJD | 2026-08-31 19:27:20 | 43.92360 | -115.98791 | 339° | 7km/h | 9844m | -4.3m/s | -39.7°C | 54.3% | 0hPa | 0V | 07:44:00 | 00:00:00 | 00:00:00 | |
| KE7DJD | 2026-08-31 19:26:59 | 43.92323 | -115.98786 | 358° | 5km/h | 9924m | -3.9m/s | -40.2°C | 47.8% | 0hPa | 0V | 07:45:00 | 00:00:00 | 00:00:00 | |
| KE7DJD | 2026-08-31 19:26:39 | 43.92303 | -115.98776 | 318° | 9km/h | 10002m | -4.2m/s | -40.7°C | 39.5% | 0hPa | 0V | 07:45:00 | 00:00:00 | 00:00:00 | |
| KE7DJD | 2026-08-31 19:26:19 | 43.92287 | -115.98749 | 319° | 4km/h | 10078m | -3.7m/s | -41.4°C | 40.1% | 0hPa | 0V | 07:46:00 | 00:00:00 | 00:00:00 | |
| KE7DJD | 2026-08-31 19:25:58 | 43.92274 | -115.98708 | 256° | 11km/h | 10156m | -4.1m/s | -42.1°C | 42.9% | 0hPa | 0V | 07:46:00 | 00:00:00 | 00:00:00 | |
| KE7DJD | 2026-08-31 19:25:38 | 43.92260 | -115.98669 | 268° | 11km/h | 10232m | -4.0m/s | -42.9°C | 45.3% | 0hPa | 0V | 07:46:00 | 00:00:00 | 00:00:00 | |
| KE7DJD | 2026-08-31 19:25:17 | 43.92254 | -115.98627 | 217° | 11km/h | 10313m | -3.7m/s | -43.5°C | 46.5% | 0hPa | 0V | 07:46:00 | 00:00:00 | 00:00:00 | |
| KE7DJD | 2026-08-31 19:24:55 | 43.92250 | -115.98583 | 233° | 13km/h | 10397m | -4.1m/s | -44.3°C | 48.6% | 0hPa | 0V | 07:46:00 | 00:00:00 | 00:00:00 | |
| KE7DJD | 2026-08-31 19:24:35 | 43.92237 | -115.98536 | 250° | 11km/h | 10473m | -4.0m/s | -45.0°C | 48.8% | 0hPa | 0V | 07:47:00 | 00:00:00 | 00:00:00 | |
| KE7DJD | 2026-08-31 19:24:14 | 43.92216 | -115.98486 | 242° | 11km/h | 10553m | -3.9m/s | -45.5°C | 44.0% | 0hPa | 0V | 07:47:00 | 00:00:00 | 00:00:00 | |
| KE7DJD | 2026-08-31 19:23:53 | 43.92167 | -115.98427 | 269° | 9km/h | 10634m | -4.5m/s | -46.1°C | 40.4% | 0hPa | 0V | 07:47:00 | 00:00:00 | 00:00:00 | |
| KE7DJD | 2026-08-31 19:23:33 | 43.92106 | -115.98382 | 298° | 7km/h | 10711m | -3.7m/s | -46.7°C | 39.9% | 0hPa | 0V | 07:48:00 | 00:00:00 | 00:00:00 | |
| KE7DJD | 2026-08-31 19:23:13 | 43.92042 | -115.98345 | 298° | 11km/h | 10786m | -4.0m/s | -47.2°C | 38.9% | 0hPa | 0V | 07:48:00 | 00:00:00 | 00:00:00 | |
| KE7DJD | 2026-08-31 19:22:52 | 43.91978 | -115.98306 | 304° | 9km/h | 10865m | -3.7m/s | -47.9°C | 39.5% | 0hPa | 0V | 07:49:00 | 00:00:00 | 00:00:00 | |
| KE7DJD | 2026-08-31 19:22:31 | 43.91906 | -115.98264 | 322° | 15km/h | 10946m | -3.8m/s | -48.5°C | 38.2% | 0hPa | 0V | 07:49:00 | 00:00:00 | 00:00:00 | |
| KE7DJD | 2026-08-31 19:22:10 | 43.91830 | -115.98218 | 340° | 11km/h | 11028m | -3.6m/s | -49.1°C | 34.9% | 0hPa | 0V | 07:49:00 | 00:00:00 | 00:00:00 | |
| KE7DJD | 2026-08-31 19:21:50 | 43.91744 | -115.98177 | 327° | 15km/h | 11106m | -4.0m/s | -49.7°C | 36.6% | 0hPa | 0V | 07:50:00 | 00:00:00 | 00:00:00 | |
| KE7DJD | 2026-08-31 19:21:29 | 43.91657 | -115.98122 | 338° | 15km/h | 11190m | -3.9m/s | -50.5°C | 38.5% | 0hPa | 0V | 07:50:00 | 00:00:00 | 00:00:00 | |
| KE7DJD | 2026-08-31 19:21:09 | 43.91571 | -115.98072 | 327° | 15km/h | 11270m | -3.8m/s | -51.0°C | 38.1% | 0hPa | 0V | 07:51:00 | 00:00:00 | 00:00:00 | |
| KE7DJD | 2026-08-31 19:20:49 | 43.91473 | -115.98016 | 327° | 29km/h | 11351m | -4.6m/s | -51.4°C | 34.0% | 0hPa | 0V | 07:51:00 | 00:00:00 | 00:00:00 | |
| KE7DJD | 2026-08-31 19:20:28 | 43.91344 | -115.97949 | 336° | 27km/h | 11436m | -4.1m/s | -52.0°C | 33.2% | 0hPa | 0V | 07:51:00 | 00:00:00 | 00:00:00 | |
| KE7DJD | 2026-08-31 19:20:07 | 43.91190 | -115.97870 | 336° | 26km/h | 11524m | -3.6m/s | -52.6°C | 32.7% | 0hPa | 0V | 07:51:00 | 00:00:00 | 00:00:00 | |
| KE7DJD | 2026-08-31 19:19:46 | 43.91017 | -115.97775 | 329° | 29km/h | 11612m | -4.1m/s | -53.2°C | 33.3% | 0hPa | 0V | 07:51:00 | 00:00:00 | 00:00:00 | |
| KE7DJD | 2026-08-31 19:19:24 | 43.90839 | -115.97658 | 332° | 24km/h | 11706m | -4.2m/s | -53.8°C | 34.1% | 0hPa | 0V | 07:52:00 | 00:00:00 | 00:00:00 | |
| KE7DJD | 2026-08-31 19:19:03 | 43.90673 | -115.97539 | 338° | 24km/h | 11795m | -4.3m/s | -54.8°C | 35.5% | 0hPa | 0V | 07:52:00 | 00:00:00 | 00:00:00 | |
| KE7DJD | 2026-08-31 19:18:43 | 43.90526 | -115.97415 | 322° | 24km/h | 11880m | -4.1m/s | -55.0°C | 34.3% | 0hPa | 0V | 07:53:00 | 00:00:00 | 00:00:00 | |
| KE7DJD | 2026-08-31 19:18:23 | 43.90390 | -115.97303 | 318° | 20km/h | 11967m | -3.8m/s | -55.4°C | 30.7% | 0hPa | 0V | 07:53:00 | 00:00:00 | 00:00:00 | |
| KE7DJD | 2026-08-31 19:18:03 | 43.90255 | -115.97195 | 318° | 24km/h | 12054m | -4.1m/s | -56.1°C | 31.0% | 0hPa | 0V | 07:53:00 | 00:00:00 | 00:00:00 | |
| KE7DJD | 2026-08-31 19:17:42 | 43.90105 | -115.97083 | 327° | 20km/h | 12144m | -4.2m/s | -56.6°C | 29.4% | 0hPa | 0V | 07:54:00 | 00:00:00 | 00:00:00 | |
| KE7DJD | 2026-08-31 19:17:22 | 43.89959 | -115.96980 | 320° | 22km/h | 12229m | -4.2m/s | -56.9°C | 28.6% | 0hPa | 0V | 07:54:00 | 00:00:00 | 00:00:00 | |
| KE7DJD | 2026-08-31 19:17:01 | 43.89809 | -115.96880 | 332° | 18km/h | 12319m | -4.2m/s | -57.7°C | 28.4% | 0hPa | 0V | 07:55:00 | 00:00:00 | 00:00:00 | |
| KE7DJD | 2026-08-31 19:16:40 | 43.89665 | -115.96810 | 356° | 24km/h | 12412m | -4.4m/s | -58.1°C | 28.7% | 0hPa | 0V | 07:55:00 | 00:00:00 | 00:00:00 | |
| KE7DJD | 2026-08-31 19:16:19 | 43.89517 | -115.96767 | 14° | 29km/h | 12505m | -4.6m/s | -58.2°C | 27.4% | 0hPa | 0V | 07:55:00 | 00:00:00 | 00:00:00 | |
| KE7DJD | 2026-08-31 19:16:00 | 43.89364 | -115.96721 | 359° | 38km/h | 12599m | -4.2m/s | -59.2°C | 28.9% | 0hPa | 0V | 07:56:00 | 00:00:00 | 00:00:00 | |
| KE7DJD | 2026-08-31 19:15:37 | 43.89240 | -115.96670 | 346° | 33km/h | 12696m | -4.3m/s | -59.8°C | 28.8% | 0hPa | 0V | 07:56:00 | 00:00:00 | 00:00:00 | |
| KE7DJD | 2026-08-31 19:15:17 | 43.89148 | -115.96619 | 340° | 35km/h | 12785m | -4.3m/s | -60.1°C | 27.8% | 0hPa | 0V | 07:57:00 | 00:00:00 | 00:00:00 | |
| KE7DJD | 2026-08-31 19:14:56 | 43.88998 | -115.96538 | 348° | 47km/h | 12877m | -4.5m/s | -60.2°C | 26.9% | 0hPa | 0V | 07:57:00 | 00:00:00 | 00:00:00 | |
| KE7DJD | 2026-08-31 19:14:35 | 43.88812 | -115.96468 | 346° | 49km/h | 12970m | -4.3m/s | -61.2°C | 25.6% | 0hPa | 0V | 07:57:00 | 00:00:00 | 00:00:00 | |
| KE7DJD | 2026-08-31 19:14:14 | 43.88625 | -115.96425 | 344° | 40km/h | 13070m | -4.7m/s | -61.8°C | 22.9% | 0hPa | 0V | 07:57:00 | 00:00:00 | 00:00:00 | |
| KE7DJD | 2026-08-31 19:13:53 | 43.88479 | -115.96451 | 349° | 31km/h | 13164m | -4.9m/s | -60.1°C | 14.1% | 0hPa | 0V | 07:57:00 | 00:00:00 | 00:00:00 | |
| KE7DJD | 2026-08-31 19:13:33 | 43.88349 | -115.96484 | 1° | 42km/h | 13261m | -4.9m/s | -59.3°C | 10.8% | 0hPa | 0V | 07:58:00 | 00:00:00 | 00:00:00 | |
| KE7DJD | 2026-08-31 19:13:12 | 43.88147 | -115.96518 | 356° | 42km/h | 13360m | -4.0m/s | -59.9°C | 10.4% | 0hPa | 0V | 07:58:00 | 00:00:00 | 00:00:00 | |
| KE7DJD | 2026-08-31 19:12:51 | 43.87931 | -115.96585 | 360° | 44km/h | 13462m | -5.3m/s | -60.2°C | 9.4% | 0hPa | 0V | 07:58:00 | 00:00:00 | 00:00:00 | |
| KE7DJD | 2026-08-31 19:12:30 | 43.87717 | -115.96716 | 8° | 35km/h | 13561m | -5.0m/s | -60.2°C | 7.9% | 0hPa | 0V | 07:59:00 | 00:00:00 | 00:00:00 | |
| KE7DJD | 2026-08-31 19:12:10 | 43.87545 | -115.96883 | 18° | 37km/h | 13657m | -4.4m/s | -60.0°C | 6.7% | 0hPa | 0V | 07:59:00 | 00:00:00 | 00:00:00 | |
| KE7DJD | 2026-08-31 19:11:49 | 43.87387 | -115.97057 | 17° | 37km/h | 13763m | -5.3m/s | -60.0°C | 5.8% | 0hPa | 0V | 08:00:00 | 00:00:00 | 00:00:00 | |
| KE7DJD | 2026-08-31 19:11:29 | 43.87202 | -115.97260 | 23° | 55km/h | 13860m | -5.4m/s | -58.2°C | 4.8% | 0hPa | 0V | 08:00:00 | 00:00:00 | 00:00:00 | |
| KE7DJD | 2026-08-31 19:11:09 | 43.87006 | -115.97510 | 31° | 57km/h | 13960m | -4.7m/s | -58.7°C | 4.8% | 0hPa | 0V | 08:00:00 | 00:00:00 | 00:00:00 | |
| KE7DJD | 2026-08-31 19:10:48 | 43.86814 | -115.97754 | 28° | 38km/h | 14069m | -5.2m/s | -59.0°C | 4.5% | 0hPa | 0V | 08:01:00 | 00:00:00 | 00:00:00 | |
| KE7DJD | 2026-08-31 19:10:28 | 43.86675 | -115.97984 | 29° | 35km/h | 14177m | -5.6m/s | -58.8°C | 4.3% | 0hPa | 0V | 08:01:00 | 00:00:00 | 00:00:00 | |
| KE7DJD | 2026-08-31 19:10:08 | 43.86542 | -115.98169 | 14° | 38km/h | 14282m | -5.9m/s | -58.8°C | 3.9% | 0hPa | 0V | 08:02:00 | 00:00:00 | 00:00:00 | |
| KE7DJD | 2026-08-31 19:09:47 | 43.86359 | -115.98367 | 17° | 33km/h | 14394m | -5.2m/s | -58.2°C | 3.5% | 0hPa | 0V | 08:02:00 | 00:00:00 | 00:00:00 | |
| KE7DJD | 2026-08-31 19:09:27 | 43.86172 | -115.98556 | 20° | 31km/h | 14500m | -5.0m/s | -58.7°C | 3.3% | 0hPa | 0V | 08:02:00 | 00:00:00 | 00:00:00 | |
| KE7DJD | 2026-08-31 19:09:06 | 43.85964 | -115.98736 | 45° | 38km/h | 14609m | -5.1m/s | -58.3°C | 2.9% | 0hPa | 0V | 08:03:00 | 00:00:00 | 00:00:00 | |
| KE7DJD | 2026-08-31 19:08:45 | 43.85766 | -115.99026 | 67° | 47km/h | 14720m | -5.5m/s | -58.9°C | 2.8% | 0hPa | 0V | 08:03:00 | 00:00:00 | 00:00:00 | |
| KE7DJD | 2026-08-31 19:08:25 | 43.85625 | -115.99383 | 85° | 55km/h | 14827m | -4.7m/s | -58.3°C | 2.5% | 0hPa | 0V | 08:03:00 | 00:00:00 | 00:00:00 | |
| KE7DJD | 2026-08-31 19:08:04 | 43.85557 | -115.99695 | 81° | 53km/h | 14938m | -5.6m/s | -57.8°C | 2.2% | 0hPa | 0V | 08:03:00 | 00:00:00 | 00:00:00 | |
| KE7DJD | 2026-08-31 19:07:43 | 43.85455 | -115.99895 | 56° | 49km/h | 15049m | -5.0m/s | -56.6°C | 1.8% | 0hPa | 0V | 08:03:00 | 00:00:00 | 00:00:00 | |
| KE7DJD | 2026-08-31 19:07:23 | 43.85268 | -116.00037 | 39° | 60km/h | 15160m | -5.4m/s | -56.0°C | 1.8% | 0hPa | 0V | 08:04:00 | 00:00:00 | 00:00:00 | |
| KE7DJD | 2026-08-31 19:07:02 | 43.85021 | -116.00217 | 39° | 73km/h | 15275m | -6.5m/s | -57.0°C | 1.8% | 0hPa | 0V | 08:04:00 | 00:00:00 | 00:00:00 | |
| KE7DJD | 2026-08-31 19:06:42 | 43.84785 | -116.00455 | 42° | 77km/h | 15389m | -6.7m/s | -57.6°C | 1.9% | 0hPa | 0V | 08:05:00 | 00:00:00 | 00:00:00 | |
| KE7DJD | 2026-08-31 19:06:22 | 43.84575 | -116.00743 | 44° | 75km/h | 15508m | -5.9m/s | -57.6°C | 1.8% | 0hPa | 0V | 08:05:00 | 00:00:00 | 00:00:00 | |
| KE7DJD | 2026-08-31 19:06:01 | 43.84387 | -116.01015 | 40° | 62km/h | 15630m | -5.5m/s | -57.7°C | 1.8% | 0hPa | 0V | 08:05:00 | 00:00:00 | 00:00:00 | |
| KE7DJD | 2026-08-31 19:05:41 | 43.84249 | -116.01256 | 39° | 60km/h | 15743m | -5.7m/s | -56.8°C | 1.6% | 0hPa | 0V | 08:06:00 | 00:00:00 | 00:00:00 | |
| KE7DJD | 2026-08-31 19:05:20 | 43.84080 | -116.01478 | 27° | 62km/h | 15865m | -5.8m/s | -56.8°C | 1.6% | 0hPa | 0V | 08:06:00 | 00:00:00 | 00:00:00 | |
| KE7DJD | 2026-08-31 19:04:59 | 43.83867 | -116.01717 | 25° | 58km/h | 15987m | -5.7m/s | -57.2°C | 1.6% | 0hPa | 0V | 08:07:00 | 00:00:00 | 00:00:00 | |
| KE7DJD | 2026-08-31 19:04:39 | 43.83673 | -116.01982 | 27° | 53km/h | 16105m | -5.9m/s | -56.7°C | 1.6% | 0hPa | 0V | 08:07:00 | 00:00:00 | 00:00:00 | |
| KE7DJD | 2026-08-31 19:04:18 | 43.83537 | -116.02251 | 35° | 29km/h | 16228m | -6.2m/s | -57.0°C | 1.6% | 0hPa | 0V | 08:08:00 | 00:00:00 | 00:00:00 | |
| KE7DJD | 2026-08-31 19:03:58 | 43.83441 | -116.02461 | 14° | 22km/h | 16353m | -6.7m/s | -56.3°C | 1.6% | 0hPa | 0V | 08:08:00 | 00:00:00 | 00:00:00 | |
| KE7DJD | 2026-08-31 19:03:37 | 43.83341 | -116.02633 | 34° | 7km/h | 16482m | -5.9m/s | -55.8°C | 1.5% | 0hPa | 0V | 08:08:00 | 00:00:00 | 00:00:00 | |
| KE7DJD | 2026-08-31 19:03:17 | 43.83217 | -116.02763 | 7° | 18km/h | 16607m | -6.2m/s | -56.2°C | 1.5% | 0hPa | 0V | 08:08:00 | 00:00:00 | 00:00:00 | |
| KE7DJD | 2026-08-31 19:02:56 | 43.83025 | -116.02927 | 52° | 31km/h | 16737m | -6.3m/s | -56.7°C | 1.5% | 0hPa | 0V | 08:08:00 | 00:00:00 | 00:00:00 | |
| KE7DJD | 2026-08-31 19:02:36 | 43.82830 | -116.03131 | 59° | 27km/h | 16862m | -6.4m/s | -56.6°C | 1.4% | 0hPa | 0V | 08:09:00 | 00:00:00 | 00:00:00 | |
| KE7DJD | 2026-08-31 19:02:16 | 43.82670 | -116.03345 | 73° | 24km/h | 16986m | -6.7m/s | -57.0°C | 1.5% | 0hPa | 0V | 08:09:00 | 00:00:00 | 00:00:00 | |
| KE7DJD | 2026-08-31 19:01:55 | 43.82542 | -116.03593 | 96° | 44km/h | 17126m | -8.0m/s | -56.9°C | 1.5% | 0hPa | 0V | 08:09:00 | 00:00:00 | 00:00:00 | |
| KE7DJD | 2026-08-31 19:01:35 | 43.82418 | -116.03843 | 80° | 42km/h | 17267m | -6.6m/s | -55.4°C | 1.3% | 0hPa | 0V | 08:10:00 | 00:00:00 | 00:00:00 | |
| KE7DJD | 2026-08-31 19:01:14 | 43.82284 | -116.04082 | 88° | 38km/h | 17414m | -7.0m/s | -55.3°C | 1.4% | 0hPa | 0V | 08:10:00 | 00:00:00 | 00:00:00 | |
| KE7DJD | 2026-08-31 19:00:53 | 43.82157 | -116.04268 | 65° | 46km/h | 17562m | -6.9m/s | -55.6°C | 1.3% | 0hPa | 0V | 08:11:00 | 00:00:00 | 00:00:00 | |
| KE7DJD | 2026-08-31 19:00:33 | 43.81977 | -116.04449 | 57° | 49km/h | 17705m | -7.3m/s | -55.8°C | 1.3% | 0hPa | 0V | 08:11:00 | 00:00:00 | 00:00:00 | |
| KE7DJD | 2026-08-31 19:00:12 | 43.81731 | -116.04612 | 50° | 64km/h | 17852m | -7.4m/s | -55.5°C | 1.3% | 0hPa | 0V | 08:11:00 | 00:00:00 | 00:00:00 | |
| KE7DJD | 2026-08-31 18:59:51 | 43.81495 | -116.04884 | 56° | 78km/h | 18004m | -7.6m/s | -55.4°C | 1.3% | 0hPa | 0V | 08:12:00 | 00:00:00 | 00:00:00 | |
| KE7DJD | 2026-08-31 18:59:30 | 43.81323 | -116.05182 | 55° | 69km/h | 18156m | -8.1m/s | -55.9°C | 1.3% | 0hPa | 0V | 08:12:00 | 00:00:00 | 00:00:00 | |
| KE7DJD | 2026-08-31 18:59:10 | 43.81241 | -116.05412 | 49° | 53km/h | 18303m | -7.3m/s | -56.0°C | 1.3% | 0hPa | 0V | 08:13:00 | 00:00:00 | 00:00:00 | |
| KE7DJD | 2026-08-31 18:58:49 | 43.81180 | -116.05557 | 16° | 38km/h | 18466m | -7.4m/s | -55.7°C | 1.2% | 0hPa | 0V | 08:13:00 | 00:00:00 | 00:00:00 | |
| KE7DJD | 2026-08-31 18:58:29 | 43.81062 | -116.05662 | 20° | 55km/h | 18619m | -7.2m/s | -55.7°C | 1.2% | 0hPa | 0V | 08:13:00 | 00:00:00 | 00:00:00 | |
| KE7DJD | 2026-08-31 18:58:09 | 43.80900 | -116.05844 | 22° | 51km/h | 18782m | -7.7m/s | -56.5°C | 1.3% | 0hPa | 0V | 08:14:00 | 00:00:00 | 00:00:00 | |
| KE7DJD | 2026-08-31 18:57:48 | 43.80768 | -116.06072 | 20° | 47km/h | 18940m | -8.2m/s | -55.4°C | 1.3% | 0hPa | 0V | 08:14:00 | 00:00:00 | 00:00:00 | |
| KE7DJD | 2026-08-31 18:57:27 | 43.80649 | -116.06279 | 358° | 35km/h | 19108m | -7.9m/s | -54.0°C | 1.1% | 0hPa | 0V | 08:14:00 | 00:00:00 | 00:00:00 | |
| KE7DJD | 2026-08-31 18:57:07 | 43.80543 | -116.06383 | 323° | 26km/h | 19270m | -7.9m/s | -54.4°C | 1.2% | 0hPa | 0V | 08:14:00 | 00:00:00 | 00:00:00 | |
| KE7DJD | 2026-08-31 18:56:46 | 43.80456 | -116.06405 | 300° | 15km/h | 19443m | -7.8m/s | -54.2°C | 1.1% | 0hPa | 0V | 08:14:00 | 00:00:00 | 00:00:00 | |
| KE7DJD | 2026-08-31 18:56:25 | 43.80378 | -116.06538 | 127° | 20km/h | 19614m | -8.1m/s | -54.2°C | 1.1% | 0hPa | 0V | 08:15:00 | 00:00:00 | 00:00:00 | |
| KE7DJD | 2026-08-31 18:56:04 | 43.80376 | -116.06739 | 141° | 42km/h | 19785m | -8.9m/s | -53.3°C | 1.1% | 0hPa | 0V | 08:15:00 | 00:00:00 | 00:00:00 | |
| KE7DJD | 2026-08-31 18:55:44 | 43.80406 | -116.06813 | 146° | 38km/h | 19956m | -9.2m/s | -52.5°C | 1.1% | 0hPa | 0V | 08:16:00 | 00:00:00 | 00:00:00 | |
| KE7DJD | 2026-08-31 18:55:23 | 43.80465 | -116.06811 | 122° | 18km/h | 20148m | -8.8m/s | -52.2°C | 1.0% | 0hPa | 0V | 08:16:00 | 00:00:00 | 00:00:00 | |
| KE7DJD | 2026-08-31 18:55:02 | 43.80443 | -116.06700 | 4° | 26km/h | 20334m | -8.5m/s | -52.9°C | 1.0% | 0hPa | 0V | 08:16:00 | 00:00:00 | 00:00:00 | |
| KE7DJD | 2026-08-31 18:54:41 | 43.80332 | -116.06537 | 343° | 53km/h | 20522m | -9.0m/s | -53.9°C | 1.1% | 0hPa | 0V | 08:17:00 | 00:00:00 | 00:00:00 | |
| KE7DJD | 2026-08-31 18:54:20 | 43.80182 | -116.06419 | 328° | 58km/h | 20715m | -8.9m/s | -54.9°C | 1.1% | 0hPa | 0V | 08:17:00 | 00:00:00 | 00:00:00 | |
| KE7DJD | 2026-08-31 18:53:59 | 43.80028 | -116.06351 | 294° | 40km/h | 20910m | -9.3m/s | -55.3°C | 1.1% | 0hPa | 0V | 08:18:00 | 00:00:00 | 00:00:00 | |
| KE7DJD | 2026-08-31 18:53:38 | 43.79951 | -116.06299 | 237° | 22km/h | 21106m | -9.3m/s | -55.0°C | 1.2% | 0hPa | 0V | 08:18:00 | 00:00:00 | 00:00:00 | |
| KE7DJD | 2026-08-31 18:53:18 | 43.79885 | -116.06257 | 173° | 11km/h | 21299m | -9.8m/s | -54.9°C | 1.2% | 0hPa | 0V | 08:18:00 | 00:00:00 | 00:00:00 | |
| KE7DJD | 2026-08-31 18:52:57 | 43.79770 | -116.06307 | 65° | 46km/h | 21513m | -10.4m/s | -54.5°C | 1.1% | 0hPa | 0V | 08:19:00 | 00:00:00 | 00:00:00 | |
| KE7DJD | 2026-08-31 18:52:36 | 43.79662 | -116.06421 | 32° | 46km/h | 21728m | -10.7m/s | -54.7°C | 1.1% | 0hPa | 0V | 08:19:00 | 00:00:00 | 00:00:00 | |
| KE7DJD | 2026-08-31 18:52:16 | 43.79579 | -116.06450 | 358° | 55km/h | 21934m | -11.2m/s | -54.3°C | 1.1% | 0hPa | 0V | 08:20:00 | 00:00:00 | 00:00:00 | |
| KE7DJD | 2026-08-31 18:51:55 | 43.79471 | -116.06467 | 308° | 29km/h | 22154m | -10.5m/s | -54.7°C | 1.1% | 0hPa | 0V | 08:20:00 | 00:00:00 | 00:00:00 | |
| KE7DJD | 2026-08-31 18:51:35 | 43.79413 | -116.06436 | 262° | 31km/h | 22373m | -12.3m/s | -54.1°C | 1.0% | 0hPa | 0V | 08:20:00 | 00:00:00 | 00:00:00 | |
| KE7DJD | 2026-08-31 18:50:53 | 43.79185 | -116.06501 | 27° | 55km/h | 22834m | -11.9m/s | -52.7°C | 1.0% | 0hPa | 0V | 08:20:00 | 00:00:00 | 00:00:00 | |
| KE7DJD | 2026-08-31 18:50:32 | 43.79142 | -116.06572 | 268° | 27km/h | 23070m | -10.7m/s | -51.9°C | 0.9% | 0hPa | 0V | 08:21:00 | 00:00:00 | 00:00:00 | |
| KE7DJD | 2026-08-31 18:50:11 | 43.79151 | -116.06532 | 180° | 18km/h | 23312m | -12.3m/s | -52.0°C | 0.9% | 0hPa | 0V | 08:21:00 | 00:00:00 | 00:00:00 | |
| KE7DJD | 2026-08-31 18:49:50 | 43.79084 | -116.06538 | 23° | 44km/h | 23570m | -12.2m/s | -50.3°C | 0.8% | 0hPa | 0V | 08:22:00 | 00:00:00 | 00:00:00 | |
| KE7DJD | 2026-08-31 18:49:29 | 43.79042 | -116.06512 | 287° | 35km/h | 23830m | -12.4m/s | -50.5°C | 0.8% | 0hPa | 0V | 08:22:00 | 00:00:00 | 00:00:00 | |
| KE7DJD | 2026-08-31 18:49:08 | 43.79073 | -116.06395 | 196° | 37km/h | 24095m | -13.4m/s | -50.2°C | 0.8% | 0hPa | 0V | 08:22:00 | 00:00:00 | 00:00:00 | |
| KE7DJD | 2026-08-31 18:48:47 | 43.79037 | -116.06315 | 7° | 40km/h | 24362m | -13.5m/s | -51.5°C | 0.9% | 0hPa | 0V | 08:23:00 | 00:00:00 | 00:00:00 | |
| KE7DJD | 2026-08-31 18:48:26 | 43.78968 | -116.06163 | 282° | 38km/h | 24642m | -14.4m/s | -50.8°C | 0.9% | 0hPa | 0V | 08:23:00 | 00:00:00 | 00:00:00 | |
| KE7DJD | 2026-08-31 18:48:06 | 43.78915 | -116.06113 | 160° | 16km/h | 24923m | -14.7m/s | -48.9°C | 0.8% | 0hPa | 0V | 08:24:00 | 00:00:00 | 00:00:00 | |
| KE7DJD | 2026-08-31 18:47:45 | 43.78807 | -116.06161 | 352° | 44km/h | 25215m | -14.5m/s | -48.2°C | 0.7% | 0hPa | 0V | 08:24:00 | 00:00:00 | 00:00:00 | |
| KE7DJD | 2026-08-31 18:47:25 | 43.78762 | -116.06101 | 230° | 35km/h | 25498m | -14.6m/s | -47.2°C | 0.7% | 0hPa | 0V | 08:24:00 | 00:00:00 | 00:00:00 | |
| KE7DJD | 2026-08-31 18:47:04 | 43.78730 | -116.06115 | 37° | 44km/h | 25803m | -15.2m/s | -46.7°C | 0.7% | 0hPa | 0V | 08:25:00 | 00:00:00 | 00:00:00 | |
| KE7DJD | 2026-08-31 18:46:43 | 43.78699 | -116.06112 | 237° | 38km/h | 26119m | -15.2m/s | -47.5°C | 0.7% | 0hPa | 0V | 08:25:00 | 00:00:00 | 00:00:00 | |
| KE7DJD | 2026-08-31 18:46:22 | 43.78684 | -116.06075 | 40° | 40km/h | 26439m | -15.6m/s | -47.8°C | 0.7% | 0hPa | 0V | 08:25:00 | 00:00:00 | 00:00:00 | |
| KE7DJD | 2026-08-31 18:46:01 | 43.78610 | -116.06048 | 245° | 37km/h | 26785m | -16.7m/s | -47.4°C | 0.7% | 0hPa | 0V | 08:25:00 | 00:00:00 | 00:00:00 | |
| KE7DJD | 2026-08-31 18:45:40 | 43.78638 | -116.06029 | 21° | 42km/h | 27139m | -17.5m/s | -48.0°C | 0.7% | 0hPa | 0V | 08:25:00 | 00:00:00 | 00:00:00 | |
| KE7DJD | 2026-08-31 18:45:21 | 43.78591 | -116.05935 | 237° | 29km/h | 27480m | -17.3m/s | -48.0°C | 0.7% | 0hPa | 0V | 08:26:00 | 00:00:00 | 00:00:00 | |
| KE7DJD | 2026-08-31 18:44:59 | 43.78539 | -116.05957 | 357° | 51km/h | 27847m | -17.3m/s | -46.8°C | 0.7% | 0hPa | 0V | 08:26:00 | 00:00:00 | 00:00:00 | |
| KE7DJD | 2026-08-31 18:44:38 | 43.78546 | -116.05967 | 117° | 38km/h | 28222m | -18.0m/s | -44.6°C | 0.6% | 0hPa | 0V | 08:27:00 | 00:00:00 | 00:00:00 | |
| KE7DJD | 2026-08-31 18:44:18 | 43.78522 | -116.05920 | 270° | 57km/h | 28584m | -17.9m/s | -44.1°C | 0.6% | 0hPa | 0V | 08:27:00 | 00:00:00 | 00:00:00 | |
| KE7DJD | 2026-08-31 18:43:57 | 43.78500 | -116.05780 | 338° | 53km/h | 28979m | -17.7m/s | -44.9°C | 0.6% | 0hPa | 0V | 08:27:00 | 00:00:00 | 00:00:00 | |
| KE7DJD | 2026-08-31 18:43:36 | 43.78392 | -116.05578 | 174° | 24km/h | 29388m | -21.1m/s | -44.7°C | 0.6% | 0hPa | 0V | 08:28:00 | 00:00:00 | 00:00:00 | |
| KE7DJD | 2026-08-31 18:43:16 | 43.78368 | -116.05543 | 10° | 33km/h | 29803m | -23.5m/s | -44.3°C | 0.6% | 0hPa | 0V | 08:28:00 | 00:00:00 | 00:00:00 | |
| KE7DJD | 2026-08-31 18:42:55 | 43.78292 | -116.05429 | 131° | 13km/h | 30244m | -16.7m/s | -44.7°C | 0.6% | 0hPa | 0V | 08:29:00 | 00:00:00 | 00:00:00 | |
| KE7DJD | 2026-08-31 18:42:35 | 43.78241 | -116.05471 | 62° | 55km/h | 30674m | -20.1m/s | -43.7°C | 0.6% | 0hPa | 0V | 08:29:00 | 00:00:00 | 00:00:00 | |
| KE7DJD | 2026-08-31 18:42:15 | 43.78312 | -116.05506 | 63° | 5km/h | 31112m | -21.5m/s | -43.0°C | 0.5% | 0hPa | 0V | 08:29:00 | 00:00:00 | 00:00:00 | |
| KE7DJD | 2026-08-31 18:41:54 | 43.78378 | -116.05501 | 255° | 33km/h | 31623m | -21.3m/s | -43.3°C | 0.6% | 0hPa | 0V | 00:00:00 | 00:00:00 | 00:00:00 | |
| KE7DJD | 2026-08-31 18:41:33 | 43.78383 | -116.05445 | 218° | 26km/h | 32154m | -27.1m/s | -43.0°C | 0.6% | 0hPa | 0V | 00:00:00 | 00:00:00 | 00:00:00 | |
| KE7DJD | 2026-08-31 18:41:13 | 43.78392 | -116.05356 | 295° | 31km/h | 32757m | -35.9m/s | -40.2°C | 0.5% | 0hPa | 0V | 00:00:00 | 00:00:00 | 00:00:00 | |
| KE7DJD | 2026-08-31 18:40:52 | 43.78372 | -116.05264 | 8° | 49km/h | 32901m | 6.6m/s | -39.9°C | 0.5% | 0hPa | 0V | 00:00:00 | 00:00:00 | 00:00:00 | |
| KE7DJD | 2026-08-31 18:40:31 | 43.78310 | -116.05153 | 303° | 22km/h | 32772m | 3.7m/s | -40.4°C | 0.5% | 0hPa | 0V | 00:00:00 | 00:00:00 | 00:00:00 | |
| KE7DJD | 2026-08-31 18:40:10 | 43.78277 | -116.05090 | 228° | 29km/h | 32629m | 5.8m/s | -40.6°C | 0.5% | 0hPa | 0V | 00:00:00 | 00:00:00 | 00:00:00 | |
| KE7DJD | 2026-08-31 18:39:49 | 43.78264 | -116.05049 | 353° | 35km/h | 32503m | 3.7m/s | -41.3°C | 0.5% | 0hPa | 0V | 00:00:00 | 00:00:00 | 00:00:00 | |
| KE7DJD | 2026-08-31 18:39:28 | 43.78314 | -116.04942 | 124° | 49km/h | 32368m | 7.9m/s | -42.8°C | 0.6% | 0hPa | 0V | 00:00:00 | 00:00:00 | 00:00:00 | |
| KE7DJD | 2026-08-31 18:39:08 | 43.78375 | -116.04867 | 265° | 66km/h | 32242m | 4.1m/s | -43.3°C | 0.6% | 0hPa | 0V | 00:00:00 | 00:00:00 | 00:00:00 | |
| KE7DJD | 2026-08-31 18:38:47 | 43.78485 | -116.04800 | 342° | 20km/h | 32115m | 6.6m/s | -43.1°C | 0.6% | 0hPa | 0V | 00:00:00 | 00:00:00 | 00:00:00 | |
| KE7DJD | 2026-08-31 18:38:26 | 43.78544 | -116.04752 | 27° | 47km/h | 31978m | 11.0m/s | -44.0°C | 0.6% | 0hPa | 0V | 00:00:00 | 00:00:00 | 00:00:00 | |
| KE7DJD | 2026-08-31 18:38:05 | 43.78526 | -116.04755 | 67° | 38km/h | 31846m | 6.4m/s | -43.8°C | 0.6% | 0hPa | 0V | 00:00:00 | 00:00:00 | 00:00:00 | |
| KE7DJD | 2026-08-31 18:37:44 | 43.78511 | -116.04698 | 136° | 40km/h | 31703m | 6.8m/s | -43.5°C | 0.6% | 0hPa | 0V | 00:00:00 | 00:00:00 | 00:00:00 | |
| KE7DJD | 2026-08-31 18:37:24 | 43.78512 | -116.04632 | 241° | 64km/h | 31572m | 8.0m/s | -42.7°C | 0.6% | 0hPa | 0V | 00:00:00 | 00:00:00 | 00:00:00 | |
| KE7DJD | 2026-08-31 18:37:03 | 43.78542 | -116.04613 | 318° | 26km/h | 31438m | 6.4m/s | -42.6°C | 0.6% | 0hPa | 0V | 00:00:00 | 00:00:00 | 00:00:00 | |
| KE7DJD | 2026-08-31 18:36:42 | 43.78651 | -116.04618 | 52° | 27km/h | 31289m | 9.5m/s | -42.3°C | 0.6% | 0hPa | 0V | 00:00:00 | 00:00:00 | 00:00:00 | |
| KE7DJD | 2026-08-31 18:36:21 | 43.78808 | -116.04656 | 107° | 46km/h | 31147m | 2.9m/s | -43.1°C | 0.6% | 0hPa | 0V | 00:00:00 | 00:00:00 | 00:00:00 | |
| KE7DJD | 2026-08-31 18:36:00 | 43.78918 | -116.04721 | 60° | 51km/h | 30998m | 8.5m/s | -43.1°C | 0.6% | 0hPa | 0V | 00:00:00 | 00:00:00 | 00:00:00 | |
| KE7DJD | 2026-08-31 18:35:39 | 43.78964 | -116.04758 | 66° | 44km/h | 30858m | 6.3m/s | -43.1°C | 0.6% | 0hPa | 0V | 00:00:00 | 00:00:00 | 00:00:00 | |
| KE7DJD | 2026-08-31 18:35:18 | 43.78947 | -116.04779 | 141° | 57km/h | 30706m | 0.5m/s | -44.0°C | 0.6% | 0hPa | 0V | 00:00:00 | 00:00:00 | 00:00:00 | |
| KE7DJD | 2026-08-31 18:34:58 | 43.78901 | -116.04816 | 281° | 46km/h | 30576m | 8.4m/s | -45.4°C | 0.7% | 0hPa | 0V | 00:00:00 | 00:00:00 | 00:00:00 | |
| KE7DJD | 2026-08-31 18:34:37 | 43.78808 | -116.04819 | 323° | 60km/h | 30436m | 7.5m/s | -44.8°C | 0.6% | 0hPa | 0V | 00:00:00 | 00:00:00 | 00:00:00 | |
| KE7DJD | 2026-08-31 18:34:16 | 43.78673 | -116.04764 | 334° | 78km/h | 30295m | 11.4m/s | -44.0°C | 0.6% | 0hPa | 0V | 00:00:00 | 00:00:00 | 00:00:00 | |
| KE7DJD | 2026-08-31 18:33:55 | 43.78512 | -116.04613 | 13° | 42km/h | 30157m | 5.6m/s | -43.6°C | 0.6% | 0hPa | 0V | 00:00:00 | 00:00:00 | 00:00:00 | |
| KE7DJD | 2026-08-31 18:33:33 | 43.78389 | -116.04471 | 67° | 29km/h | 30011m | 3.4m/s | -44.0°C | 0.6% | 0hPa | 0V | 00:00:00 | 00:00:00 | 00:00:00 | |
| KE7DJD | 2026-08-31 18:33:13 | 43.78314 | -116.04378 | 229° | 13km/h | 29888m | 10.7m/s | -44.2°C | 0.6% | 0hPa | 0V | 00:00:00 | 00:00:00 | 00:00:00 | |
| KE7DJD | 2026-08-31 18:32:53 | 43.78309 | -116.04341 | 283° | 47km/h | 29761m | 8.9m/s | -43.8°C | 0.7% | 0hPa | 0V | 00:00:00 | 00:00:00 | 00:00:00 | |
| KE7DJD | 2026-08-31 18:32:32 | 43.78365 | -116.04335 | 88° | 7km/h | 29636m | 10.1m/s | -44.2°C | 0.6% | 0hPa | 0V | 00:00:00 | 00:00:00 | 00:00:00 | |
| KE7DJD | 2026-08-31 18:32:12 | 43.78390 | -116.04256 | 132° | 27km/h | 29504m | 9.1m/s | -44.6°C | 0.7% | 0hPa | 0V | 00:00:00 | 00:00:00 | 00:00:00 | |
| KE7DJD | 2026-08-31 18:31:51 | 43.78338 | -116.04188 | 231° | 16km/h | 29370m | 2.0m/s | -44.9°C | 0.7% | 0hPa | 0V | 00:00:00 | 00:00:00 | 00:00:00 | |
| KE7DJD | 2026-08-31 18:31:31 | 43.78261 | -116.04101 | 300° | 33km/h | 29240m | 9.3m/s | -45.9°C | 0.7% | 0hPa | 0V | 00:00:00 | 00:00:00 | 00:00:00 | |
| KE7DJD | 2026-08-31 18:31:10 | 43.78226 | -116.03934 | 310° | 40km/h | 29095m | 3.3m/s | -46.6°C | 0.7% | 0hPa | 0V | 00:00:00 | 00:00:00 | 00:00:00 | |
| KE7DJD | 2026-08-31 18:30:49 | 43.78208 | -116.03770 | 345° | 40km/h | 28951m | 9.8m/s | -46.7°C | 0.8% | 0hPa | 0V | 00:00:00 | 00:00:00 | 00:00:00 | |
| KE7DJD | 2026-08-31 18:30:28 | 43.78187 | -116.03548 | 293° | 53km/h | 28813m | 6.6m/s | -46.7°C | 0.8% | 0hPa | 0V | 00:00:00 | 00:00:00 | 00:00:00 | |
| KE7DJD | 2026-08-31 18:30:07 | 43.78177 | -116.03399 | 234° | 46km/h | 28681m | 0.7m/s | -45.7°C | 0.7% | 0hPa | 0V | 00:00:00 | 00:00:00 | 00:00:00 | |
| KE7DJD | 2026-08-31 18:29:47 | 43.78164 | -116.03319 | 183° | 15km/h | 28553m | 9.2m/s | -45.4°C | 0.7% | 0hPa | 0V | 00:00:00 | 00:00:00 | 00:00:00 | |
| KE7DJD | 2026-08-31 18:29:27 | 43.78176 | -116.03264 | 43° | 5km/h | 28429m | 3.8m/s | -45.1°C | 0.7% | 0hPa | 0V | 00:00:00 | 00:00:00 | 00:00:00 | |
| KE7DJD | 2026-08-31 18:29:06 | 43.78201 | -116.03189 | 349° | 24km/h | 28293m | 3.6m/s | -46.2°C | 0.7% | 0hPa | 0V | 00:00:00 | 00:00:00 | 00:00:00 | |
| KE7DJD | 2026-08-31 18:28:45 | 43.78246 | -116.03133 | 357° | 35km/h | 28173m | 9.4m/s | -46.6°C | 0.8% | 0hPa | 0V | 00:00:00 | 00:00:00 | 00:00:00 | |
| KE7DJD | 2026-08-31 18:28:25 | 43.78242 | -116.03181 | 37° | 29km/h | 28039m | 5.5m/s | -47.5°C | 0.8% | 0hPa | 0V | 00:00:00 | 00:00:00 | 00:00:00 | |
| KE7DJD | 2026-08-31 18:28:04 | 43.78185 | -116.03193 | 197° | 20km/h | 27919m | 2.1m/s | -47.7°C | 0.9% | 0hPa | 0V | 00:00:00 | 00:00:00 | 00:00:00 | |
| KE7DJD | 2026-08-31 18:27:43 | 43.78104 | -116.03132 | 270° | 26km/h | 27795m | 9.1m/s | -47.3°C | 0.9% | 0hPa | 0V | 00:00:00 | 00:00:00 | 00:00:00 | |
| KE7DJD | 2026-08-31 18:27:23 | 43.78040 | -116.03080 | 341° | 55km/h | 27672m | 1.6m/s | -47.3°C | 0.8% | 0hPa | 0V | 00:00:00 | 00:00:00 | 00:00:00 | |
| KE7DJD | 2026-08-31 18:27:02 | 43.77970 | -116.03010 | 337° | 35km/h | 27541m | 8.7m/s | -47.4°C | 0.8% | 0hPa | 0V | 00:00:00 | 00:00:00 | 00:00:00 | |
| KE7DJD | 2026-08-31 18:26:42 | 43.77879 | -116.02933 | 323° | 57km/h | 27412m | 6.8m/s | -47.4°C | 0.8% | 0hPa | 0V | 00:00:00 | 00:00:00 | 00:00:00 | |
| KE7DJD | 2026-08-31 18:26:21 | 43.77778 | -116.02893 | 292° | 35km/h | 27279m | 9.6m/s | -47.7°C | 0.9% | 0hPa | 0V | 00:00:00 | 00:00:00 | 00:00:00 | |
| KE7DJD | 2026-08-31 18:26:00 | 43.77723 | -116.02805 | 280° | 47km/h | 27145m | 3.3m/s | -47.1°C | 0.8% | 0hPa | 0V | 00:00:00 | 00:00:00 | 00:00:00 | |
| KE7DJD | 2026-08-31 18:25:40 | 43.77729 | -116.02708 | 306° | 20km/h | 27014m | 4.6m/s | -46.9°C | 0.8% | 0hPa | 0V | 00:00:00 | 00:00:00 | 00:00:00 | |
| KE7DJD | 2026-08-31 18:25:19 | 43.77747 | -116.02676 | 245° | 40km/h | 26882m | 6.3m/s | -46.9°C | 0.8% | 0hPa | 0V | 00:00:00 | 00:00:00 | 00:00:00 | |
| KE7DJD | 2026-08-31 18:24:59 | 43.77783 | -116.02679 | 10° | 15km/h | 26756m | 8.4m/s | -46.6°C | 0.8% | 0hPa | 0V | 00:00:00 | 00:00:00 | 00:00:00 | |
| KE7DJD | 2026-08-31 18:24:39 | 43.77788 | -116.02711 | 57° | 47km/h | 26627m | 9.5m/s | -46.1°C | 0.8% | 0hPa | 0V | 00:00:00 | 00:00:00 | 00:00:00 | |
| KE7DJD | 2026-08-31 18:24:18 | 43.77748 | -116.02753 | 111° | 15km/h | 26496m | 10.4m/s | -46.6°C | 0.8% | 0hPa | 0V | 00:00:00 | 00:00:00 | 00:00:00 | |
| KE7DJD | 2026-08-31 18:23:57 | 43.77709 | -116.02760 | 195° | 15km/h | 26361m | 6.0m/s | -47.7°C | 0.9% | 0hPa | 0V | 00:00:00 | 00:00:00 | 00:00:00 | |
| KE7DJD | 2026-08-31 18:23:36 | 43.77682 | -116.02754 | 211° | 9km/h | 26232m | 4.0m/s | -47.8°C | 0.9% | 0hPa | 0V | 00:00:00 | 00:00:00 | 00:00:00 | |
| KE7DJD | 2026-08-31 18:23:15 | 43.77677 | -116.02794 | 69° | 24km/h | 26102m | 6.3m/s | -48.0°C | 0.9% | 0hPa | 0V | 00:00:00 | 00:00:00 | 00:00:00 | |
| KE7DJD | 2026-08-31 18:22:55 | 43.77669 | -116.02854 | 71° | 24km/h | 25988m | 10.9m/s | -48.3°C | 0.9% | 0hPa | 0V | 00:00:00 | 00:00:00 | 00:00:00 | |
| KE7DJD | 2026-08-31 18:22:34 | 43.77649 | -116.02897 | 23° | 15km/h | 25866m | 6.7m/s | -47.8°C | 0.8% | 0hPa | 0V | 00:00:00 | 00:00:00 | 00:00:00 | |
| KE7DJD | 2026-08-31 18:22:13 | 43.77595 | -116.02854 | 44° | 16km/h | 25748m | 6.1m/s | -48.4°C | 0.9% | 0hPa | 0V | 00:00:00 | 00:00:00 | 00:00:00 | |
| KE7DJD | 2026-08-31 18:21:53 | 43.77533 | -116.02866 | 27° | 22km/h | 25639m | 7.8m/s | -48.4°C | 0.9% | 0hPa | 0V | 00:00:00 | 00:00:00 | 00:00:00 | |
| KE7DJD | 2026-08-31 18:21:32 | 43.77488 | -116.02841 | 5° | 20km/h | 25511m | 3.5m/s | -48.6°C | 0.9% | 0hPa | 0V | 00:00:00 | 00:00:00 | 00:00:00 | |
| KE7DJD | 2026-08-31 18:20:52 | 43.77382 | -116.02709 | 352° | 5km/h | 25275m | 5.9m/s | -48.9°C | 0.9% | 0hPa | 0V | 00:00:00 | 00:00:00 | 00:00:00 | |
| KE7DJD | 2026-08-31 18:20:32 | 43.77327 | -116.02712 | 44° | 51km/h | 25155m | 5.5m/s | -49.5°C | 0.9% | 0hPa | 0V | 00:00:00 | 00:00:00 | 00:00:00 | |
| KE7DJD | 2026-08-31 18:20:11 | 43.77197 | -116.02679 | 359° | 26km/h | 25036m | 6.6m/s | -50.7°C | 1.0% | 0hPa | 0V | 00:00:00 | 00:00:00 | 00:00:00 | |
| KE7DJD | 2026-08-31 18:19:50 | 43.77092 | -116.02584 | 6° | 26km/h | 24917m | 4.0m/s | -50.8°C | 1.0% | 0hPa | 0V | 00:00:00 | 00:00:00 | 00:00:00 | |
| KE7DJD | 2026-08-31 18:19:29 | 43.77014 | -116.02505 | 281° | 29km/h | 24791m | 7.1m/s | -50.5°C | 1.0% | 0hPa | 0V | 00:00:00 | 00:00:00 | 00:00:00 | |
| KE7DJD | 2026-08-31 18:19:09 | 43.76947 | -116.02451 | 293° | 31km/h | 24673m | 7.6m/s | -51.1°C | 1.0% | 0hPa | 0V | 00:00:00 | 00:00:00 | 00:00:00 | |
| KE7DJD | 2026-08-31 18:18:48 | 43.76902 | -116.02305 | 298° | 55km/h | 24557m | 2.5m/s | -51.6°C | 1.1% | 0hPa | 0V | 00:00:00 | 00:00:00 | 00:00:00 | |
| KE7DJD | 2026-08-31 18:18:28 | 43.76864 | -116.02124 | 267° | 53km/h | 24446m | 6.5m/s | -51.4°C | 1.0% | 0hPa | 0V | 00:00:00 | 00:00:00 | 00:00:00 | |
| KE7DJD | 2026-08-31 18:18:07 | 43.76830 | -116.01962 | 288° | 47km/h | 24324m | 3.3m/s | -51.4°C | 1.1% | 0hPa | 0V | 00:00:00 | 00:00:00 | 00:00:00 | |
| KE7DJD | 2026-08-31 18:17:46 | 43.76781 | -116.01844 | 281° | 55km/h | 24207m | 2.8m/s | -51.4°C | 1.1% | 0hPa | 0V | 00:00:00 | 00:00:00 | 00:00:00 | |
| KE7DJD | 2026-08-31 18:17:25 | 43.76760 | -116.01713 | 277° | 35km/h | 24090m | 1.9m/s | -51.2°C | 1.1% | 0hPa | 0V | 00:00:00 | 00:00:00 | 00:00:00 | |
| KE7DJD | 2026-08-31 18:17:04 | 43.76780 | -116.01595 | 242° | 13km/h | 23978m | 8.3m/s | -51.4°C | 1.0% | 0hPa | 0V | 00:00:00 | 00:00:00 | 00:00:00 | |
| KE7DJD | 2026-08-31 18:16:43 | 43.76789 | -116.01588 | 125° | 13km/h | 23856m | 7.6m/s | -51.6°C | 1.1% | 0hPa | 0V | 00:00:00 | 00:00:00 | 00:00:00 | |
| KE7DJD | 2026-08-31 18:16:23 | 43.76777 | -116.01601 | 238° | 20km/h | 23732m | 6.7m/s | -51.4°C | 1.1% | 0hPa | 0V | 00:00:00 | 00:00:00 | 00:00:00 | |
| KE7DJD | 2026-08-31 18:16:02 | 43.76730 | -116.01560 | 357° | 15km/h | 23612m | 6.9m/s | -51.9°C | 1.1% | 0hPa | 0V | 00:00:00 | 00:00:00 | 00:00:00 | |
| KE7DJD | 2026-08-31 18:15:42 | 43.76669 | -116.01568 | 37° | 22km/h | 23497m | 5.4m/s | -52.2°C | 1.1% | 0hPa | 0V | 00:00:00 | 00:00:00 | 00:00:00 | |
| KE7DJD | 2026-08-31 18:15:21 | 43.76580 | -116.01519 | 285° | 35km/h | 23376m | 7.1m/s | -52.5°C | 1.1% | 0hPa | 0V | 00:00:00 | 00:00:00 | 00:00:00 | |
| KE7DJD | 2026-08-31 18:15:01 | 43.76522 | -116.01455 | 318° | 13km/h | 23262m | 5.1m/s | -52.4°C | 1.2% | 0hPa | 0V | 00:00:00 | 00:00:00 | 00:00:00 | |
| KE7DJD | 2026-08-31 18:14:41 | 43.76519 | -116.01464 | 138° | 20km/h | 23134m | 4.2m/s | -52.7°C | 1.2% | 0hPa | 0V | 00:00:00 | 00:00:00 | 00:00:00 | |
| KE7DJD | 2026-08-31 18:14:20 | 43.76524 | -116.01504 | 58° | 13km/h | 23004m | 7.1m/s | -52.0°C | 1.1% | 0hPa | 0V | 00:00:00 | 00:00:00 | 00:00:00 | |
| KE7DJD | 2026-08-31 18:13:59 | 43.76504 | -116.01591 | 83° | 38km/h | 22883m | 5.2m/s | -51.9°C | 1.1% | 0hPa | 0V | 00:00:00 | 00:00:00 | 00:00:00 | |
| KE7DJD | 2026-08-31 18:13:39 | 43.76401 | -116.01707 | 43° | 24km/h | 22768m | 5.6m/s | -52.2°C | 1.2% | 0hPa | 0V | 00:00:00 | 00:00:00 | 00:00:00 | |
| KE7DJD | 2026-08-31 18:12:57 | 43.76164 | -116.01805 | 357° | 49km/h | 22533m | 7.0m/s | -53.0°C | 1.3% | 0hPa | 0V | 00:00:00 | 00:00:00 | 00:00:00 | |
| KE7DJD | 2026-08-31 18:12:36 | 43.76036 | -116.01794 | 348° | 27km/h | 22419m | 6.6m/s | -52.8°C | 1.1% | 0hPa | 0V | 00:00:00 | 00:00:00 | 00:00:00 | |
| KE7DJD | 2026-08-31 18:12:15 | 43.75932 | -116.01708 | 298° | 16km/h | 22295m | 5.1m/s | -53.4°C | 1.2% | 0hPa | 0V | 00:00:00 | 00:00:00 | 00:00:00 | |
| KE7DJD | 2026-08-31 18:11:55 | 43.75880 | -116.01665 | 233° | 11km/h | 22189m | 5.5m/s | -53.9°C | 1.2% | 0hPa | 0V | 00:00:00 | 00:00:00 | 00:00:00 | |
| KE7DJD | 2026-08-31 18:11:35 | 43.75828 | -116.01691 | 7° | 11km/h | 22082m | 6.0m/s | -53.9°C | 1.3% | 0hPa | 0V | 00:00:00 | 00:00:00 | 00:00:00 | |
| KE7DJD | 2026-08-31 18:11:14 | 43.75733 | -116.01678 | 361° | 31km/h | 21967m | 7.6m/s | -54.2°C | 1.3% | 0hPa | 0V | 00:00:00 | 00:00:00 | 00:00:00 | |
| KE7DJD | 2026-08-31 18:10:54 | 43.75625 | -116.01676 | 360° | 35km/h | 21856m | 4.3m/s | -54.3°C | 1.3% | 0hPa | 0V | 00:00:00 | 00:00:00 | 00:00:00 | |
| KE7DJD | 2026-08-31 18:10:33 | 43.75532 | -116.01603 | 293° | 16km/h | 21738m | 5.3m/s | -54.3°C | 1.3% | 0hPa | 0V | 00:00:00 | 00:00:00 | 00:00:00 | |
| KE7DJD | 2026-08-31 18:10:12 | 43.75460 | -116.01614 | 55° | 24km/h | 21624m | 4.3m/s | -54.0°C | 1.3% | 0hPa | 0V | 00:00:00 | 00:00:00 | 00:00:00 | |
| KE7DJD | 2026-08-31 18:09:52 | 43.75372 | -116.01666 | 337° | 15km/h | 21509m | 4.0m/s | -53.6°C | 1.3% | 0hPa | 0V | 00:00:00 | 00:00:00 | 00:00:00 | |
| KE7DJD | 2026-08-31 18:09:31 | 43.75248 | -116.01714 | 312° | 16km/h | 21391m | 7.1m/s | -53.6°C | 1.2% | 0hPa | 0V | 00:00:00 | 00:00:00 | 00:00:00 | |
| KE7DJD | 2026-08-31 18:09:11 | 43.75134 | -116.01710 | 37° | 31km/h | 21277m | 5.4m/s | -54.0°C | 1.3% | 0hPa | 0V | 00:00:00 | 00:00:00 | 00:00:00 | |
| KE7DJD | 2026-08-31 18:08:51 | 43.75068 | -116.01675 | 332° | 18km/h | 21164m | 7.2m/s | -53.8°C | 1.3% | 0hPa | 0V | 00:00:00 | 00:00:00 | 00:00:00 | |
| KE7DJD | 2026-08-31 18:08:30 | 43.75030 | -116.01623 | 30° | 7km/h | 21048m | 5.0m/s | -54.3°C | 1.4% | 0hPa | 0V | 00:00:00 | 00:00:00 | 00:00:00 | |
| KE7DJD | 2026-08-31 18:08:10 | 43.75011 | -116.01546 | 258° | 24km/h | 20934m | 5.1m/s | -54.5°C | 1.3% | 0hPa | 0V | 00:00:00 | 00:00:00 | 00:00:00 | |
| KE7DJD | 2026-08-31 18:07:49 | 43.74986 | -116.01531 | 46° | 9km/h | 20818m | 5.9m/s | -54.4°C | 1.4% | 0hPa | 0V | 00:00:00 | 00:00:00 | 00:00:00 | |
| KE7DJD | 2026-08-31 18:07:28 | 43.74933 | -116.01494 | 2° | 5km/h | 20699m | 4.4m/s | -54.4°C | 1.4% | 0hPa | 0V | 00:00:00 | 00:00:00 | 00:00:00 | |
| KE7DJD | 2026-08-31 18:07:07 | 43.74842 | -116.01466 | 303° | 18km/h | 20584m | 5.8m/s | -54.1°C | 1.3% | 0hPa | 0V | 00:00:00 | 00:00:00 | 00:00:00 | |
| KE7DJD | 2026-08-31 18:06:47 | 43.74770 | -116.01412 | 26° | 18km/h | 20472m | 4.2m/s | -53.9°C | 1.3% | 0hPa | 0V | 00:00:00 | 00:00:00 | 00:00:00 | |
| KE7DJD | 2026-08-31 18:06:26 | 43.74730 | -116.01318 | 263° | 24km/h | 20358m | 5.0m/s | -53.4°C | 1.3% | 0hPa | 0V | 00:00:00 | 00:00:00 | 00:00:00 | |
| KE7DJD | 2026-08-31 18:06:07 | 43.74716 | -116.01231 | 39° | 18km/h | 20248m | 7.3m/s | -52.9°C | 1.3% | 0hPa | 0V | 00:00:00 | 00:00:00 | 00:00:00 | |
| KE7DJD | 2026-08-31 18:05:46 | 43.74748 | -116.01220 | 194° | 20km/h | 20131m | 7.1m/s | -52.4°C | 1.2% | 0hPa | 0V | 00:00:00 | 00:00:00 | 00:00:00 | |
| KE7DJD | 2026-08-31 18:05:25 | 43.74806 | -116.01315 | 92° | 31km/h | 20018m | 2.1m/s | -53.2°C | 1.3% | 0hPa | 0V | 00:00:00 | 00:00:00 | 00:00:00 | |
| KE7DJD | 2026-08-31 18:05:05 | 43.74845 | -116.01449 | 124° | 40km/h | 19908m | 4.1m/s | -54.6°C | 1.3% | 0hPa | 0V | 00:00:00 | 00:00:00 | 00:00:00 | |
| KE7DJD | 2026-08-31 18:04:44 | 43.74847 | -116.01671 | 88° | 35km/h | 19792m | 6.6m/s | -55.7°C | 1.5% | 0hPa | 0V | 00:00:00 | 00:00:00 | 00:00:00 | |
| KE7DJD | 2026-08-31 18:04:23 | 43.74781 | -116.01900 | 35° | 27km/h | 19678m | 2.5m/s | -56.3°C | 1.5% | 0hPa | 0V | 00:00:00 | 00:00:00 | 00:00:00 | |
| KE7DJD | 2026-08-31 18:04:03 | 43.74696 | -116.02059 | 81° | 27km/h | 19573m | 4.3m/s | -56.0°C | 1.5% | 0hPa | 0V | 00:00:00 | 00:00:00 | 00:00:00 | |
| KE7DJD | 2026-08-31 18:03:42 | 43.74619 | -116.02139 | 34° | 9km/h | 19461m | 5.1m/s | -56.5°C | 1.5% | 0hPa | 0V | 00:00:00 | 00:00:00 | 00:00:00 | |
| KE7DJD | 2026-08-31 18:03:22 | 43.74564 | -116.02252 | 64° | 24km/h | 19356m | 6.3m/s | -56.6°C | 1.5% | 0hPa | 0V | 00:00:00 | 00:00:00 | 00:00:00 | |
| KE7DJD | 2026-08-31 18:03:01 | 43.74435 | -116.02411 | 48° | 53km/h | 19244m | 5.4m/s | -56.5°C | 1.5% | 0hPa | 0V | 00:00:00 | 00:00:00 | 00:00:00 | |
| KE7DJD | 2026-08-31 18:02:40 | 43.74296 | -116.02631 | 56° | 38km/h | 19133m | 6.7m/s | -57.0°C | 1.5% | 0hPa | 0V | 00:00:00 | 00:00:00 | 00:00:00 | |
| KE7DJD | 2026-08-31 18:02:19 | 43.74170 | -116.02853 | 68° | 53km/h | 19022m | 3.8m/s | -58.1°C | 1.7% | 0hPa | 0V | 00:00:00 | 00:00:00 | 00:00:00 | |
| KE7DJD | 2026-08-31 18:01:59 | 43.74014 | -116.03043 | 26° | 47km/h | 18918m | 6.2m/s | -58.5°C | 1.7% | 0hPa | 0V | 00:00:00 | 00:00:00 | 00:00:00 | |
| KE7DJD | 2026-08-31 18:01:39 | 43.73827 | -116.03178 | 34° | 33km/h | 18817m | 6.5m/s | -58.0°C | 1.7% | 0hPa | 0V | 00:00:00 | 00:00:00 | 00:00:00 | |
| KE7DJD | 2026-08-31 18:01:18 | 43.73677 | -116.03264 | 24° | 33km/h | 18700m | 5.7m/s | -57.0°C | 1.6% | 0hPa | 0V | 00:00:00 | 00:00:00 | 00:00:00 | |
| KE7DJD | 2026-08-31 18:00:57 | 43.73559 | -116.03314 | 348° | 11km/h | 18588m | 4.4m/s | -56.2°C | 1.6% | 0hPa | 0V | 00:00:00 | 00:00:00 | 00:00:00 | |
| KE7DJD | 2026-08-31 18:00:16 | 43.73464 | -116.03468 | 52° | 27km/h | 18375m | 4.9m/s | -56.4°C | 1.6% | 0hPa | 0V | 00:00:00 | 00:00:00 | 00:00:00 | |
| KE7DJD | 2026-08-31 17:59:55 | 43.73400 | -116.03653 | 74° | 46km/h | 18266m | 4.6m/s | -56.4°C | 1.6% | 0hPa | 0V | 00:00:00 | 00:00:00 | 00:00:00 | |
| KE7DJD | 2026-08-31 17:59:35 | 43.73296 | -116.03873 | 54° | 57km/h | 18164m | 7.0m/s | -56.2°C | 1.6% | 0hPa | 0V | 00:00:00 | 00:00:00 | 00:00:00 | |
| KE7DJD | 2026-08-31 17:59:15 | 43.73151 | -116.04106 | 42° | 44km/h | 18062m | 5.4m/s | -55.9°C | 1.6% | 0hPa | 0V | 00:00:00 | 00:00:00 | 00:00:00 | |
| KE7DJD | 2026-08-31 17:58:55 | 43.72964 | -116.04327 | 35° | 44km/h | 17960m | 5.4m/s | -55.5°C | 1.5% | 0hPa | 0V | 00:00:00 | 00:00:00 | 00:00:00 | |
| KE7DJD | 2026-08-31 17:58:34 | 43.72717 | -116.04501 | 36° | 47km/h | 17857m | 2.8m/s | -55.1°C | 1.5% | 0hPa | 0V | 00:00:00 | 00:00:00 | 00:00:00 | |
| KE7DJD | 2026-08-31 17:58:13 | 43.72436 | -116.04598 | 1° | 42km/h | 17751m | 6.1m/s | -55.4°C | 1.5% | 0hPa | 0V | 00:00:00 | 00:00:00 | 00:00:00 | |
| KE7DJD | 2026-08-31 17:57:52 | 43.72203 | -116.04642 | 356° | 40km/h | 17645m | 6.3m/s | -56.0°C | 1.6% | 0hPa | 0V | 00:00:00 | 00:00:00 | 00:00:00 | |
| KE7DJD | 2026-08-31 17:57:31 | 43.72009 | -116.04716 | 12° | 47km/h | 17540m | 4.9m/s | -55.6°C | 1.6% | 0hPa | 0V | 00:00:00 | 00:00:00 | 00:00:00 | |
| KE7DJD | 2026-08-31 17:57:11 | 43.71861 | -116.04801 | 46° | 16km/h | 17437m | 5.4m/s | -55.0°C | 1.6% | 0hPa | 0V | 00:00:00 | 00:00:00 | 00:00:00 | |
| KE7DJD | 2026-08-31 17:56:50 | 43.71744 | -116.04935 | 55° | 29km/h | 17328m | 4.1m/s | -55.5°C | 1.6% | 0hPa | 0V | 00:00:00 | 00:00:00 | 00:00:00 | |
| KE7DJD | 2026-08-31 17:56:30 | 43.71612 | -116.05080 | 61° | 38km/h | 17231m | 3.9m/s | -55.3°C | 1.5% | 0hPa | 0V | 00:00:00 | 00:00:00 | 00:00:00 | |
| KE7DJD | 2026-08-31 17:56:10 | 43.71462 | -116.05276 | 48° | 20km/h | 17126m | 5.0m/s | -56.2°C | 1.6% | 0hPa | 0V | 00:00:00 | 00:00:00 | 00:00:00 | |
| KE7DJD | 2026-08-31 17:55:48 | 43.71338 | -116.05492 | 49° | 27km/h | 17023m | 5.1m/s | -57.1°C | 1.8% | 0hPa | 0V | 00:00:00 | 00:00:00 | 00:00:00 | |
| KE7DJD | 2026-08-31 17:55:27 | 43.71196 | -116.05695 | 44° | 42km/h | 16918m | 6.9m/s | -56.9°C | 1.8% | 0hPa | 0V | 00:00:00 | 00:00:00 | 00:00:00 | |
| KE7DJD | 2026-08-31 17:55:06 | 43.71046 | -116.05870 | 47° | 33km/h | 16813m | 5.8m/s | -56.3°C | 1.7% | 0hPa | 0V | 00:00:00 | 00:00:00 | 00:00:00 | |
| KE7DJD | 2026-08-31 17:54:46 | 43.70901 | -116.06037 | 48° | 35km/h | 16719m | 5.8m/s | -56.0°C | 1.7% | 0hPa | 0V | 00:00:00 | 00:00:00 | 00:00:00 | |
| KE7DJD | 2026-08-31 17:54:25 | 43.70738 | -116.06206 | 48° | 46km/h | 16617m | 5.2m/s | -56.4°C | 1.8% | 0hPa | 0V | 00:00:00 | 00:00:00 | 00:00:00 | |
| KE7DJD | 2026-08-31 17:54:04 | 43.70612 | -116.06354 | 65° | 29km/h | 16510m | 4.9m/s | -56.1°C | 1.8% | 0hPa | 0V | 00:00:00 | 00:00:00 | 00:00:00 | |
| KE7DJD | 2026-08-31 17:53:43 | 43.70552 | -116.06524 | 50° | 33km/h | 16409m | 5.3m/s | -56.5°C | 1.8% | 0hPa | 0V | 00:00:00 | 00:00:00 | 00:00:00 | |
| KE7DJD | 2026-08-31 17:53:22 | 43.70504 | -116.06732 | 72° | 29km/h | 16312m | 3.0m/s | -56.8°C | 1.8% | 0hPa | 0V | 00:00:00 | 00:00:00 | 00:00:00 | |
| KE7DJD | 2026-08-31 17:53:01 | 43.70451 | -116.06999 | 91° | 40km/h | 16210m | 3.9m/s | -57.5°C | 2.0% | 0hPa | 0V | 00:00:00 | 00:00:00 | 00:00:00 | |
| KE7DJD | 2026-08-31 17:52:41 | 43.70334 | -116.07275 | 59° | 47km/h | 16116m | 5.7m/s | -57.2°C | 2.0% | 0hPa | 0V | 00:00:00 | 00:00:00 | 00:00:00 | |
| KE7DJD | 2026-08-31 17:52:21 | 43.70179 | -116.07578 | 59° | 57km/h | 16019m | 3.3m/s | -57.3°C | 2.0% | 0hPa | 0V | 00:00:00 | 00:00:00 | 00:00:00 | |
| KE7DJD | 2026-08-31 17:52:00 | 43.69983 | -116.07898 | 47° | 51km/h | 15919m | 5.9m/s | -57.2°C | 2.1% | 0hPa | 0V | 00:00:00 | 00:00:00 | 00:00:00 | |
| KE7DJD | 2026-08-31 17:51:40 | 43.69827 | -116.08157 | 64° | 46km/h | 15826m | 4.2m/s | -56.7°C | 2.1% | 0hPa | 0V | 00:00:00 | 00:00:00 | 00:00:00 | |
| KE7DJD | 2026-08-31 17:51:19 | 43.69702 | -116.08427 | 68° | 38km/h | 15729m | 5.9m/s | -56.8°C | 2.0% | 0hPa | 0V | 00:00:00 | 00:00:00 | 00:00:00 | |
| KE7DJD | 2026-08-31 17:50:58 | 43.69588 | -116.08705 | 64° | 42km/h | 15628m | 5.5m/s | -57.3°C | 2.1% | 0hPa | 0V | 00:00:00 | 00:00:00 | 00:00:00 | |
| KE7DJD | 2026-08-31 17:50:39 | 43.69440 | -116.08960 | 58° | 53km/h | 15530m | 3.3m/s | -58.0°C | 2.4% | 0hPa | 0V | 00:00:00 | 00:00:00 | 00:00:00 | |
| KE7DJD | 2026-08-31 17:50:17 | 43.69258 | -116.09227 | 34° | 57km/h | 15431m | 6.8m/s | -58.2°C | 2.5% | 0hPa | 0V | 00:00:00 | 00:00:00 | 00:00:00 | |
| KE7DJD | 2026-08-31 17:49:57 | 43.69086 | -116.09416 | 54° | 26km/h | 15327m | 3.3m/s | -58.1°C | 2.6% | 0hPa | 0V | 00:00:00 | 00:00:00 | 00:00:00 | |
| KE7DJD | 2026-08-31 17:49:36 | 43.68955 | -116.09575 | 45° | 46km/h | 15230m | 4.8m/s | -59.1°C | 3.1% | 0hPa | 0V | 00:00:00 | 00:00:00 | 00:00:00 | |
| KE7DJD | 2026-08-31 17:49:16 | 43.68882 | -116.09818 | 71° | 38km/h | 15135m | 5.9m/s | -59.5°C | 3.2% | 0hPa | 0V | 00:00:00 | 00:00:00 | 00:00:00 | |
| KE7DJD | 2026-08-31 17:48:56 | 43.68816 | -116.10158 | 67° | 60km/h | 15038m | 4.5m/s | -59.8°C | 3.4% | 0hPa | 0V | 00:00:00 | 00:00:00 | 00:00:00 | |
| KE7DJD | 2026-08-31 17:48:34 | 43.68690 | -116.10560 | 58° | 62km/h | 14936m | 5.8m/s | -59.8°C | 3.8% | 0hPa | 0V | 00:00:00 | 00:00:00 | 00:00:00 | |
| KE7DJD | 2026-08-31 17:48:14 | 43.68511 | -116.10876 | 33° | 57km/h | 14818m | 4.4m/s | -59.5°C | 3.8% | 0hPa | 0V | 00:00:00 | 00:00:00 | 00:00:00 | |
| KE7DJD | 2026-08-31 17:47:53 | 43.68282 | -116.11133 | 32° | 47km/h | 14704m | 5.8m/s | -59.1°C | 3.8% | 0hPa | 0V | 00:00:00 | 00:00:00 | 00:00:00 | |
| KE7DJD | 2026-08-31 17:47:33 | 43.68079 | -116.11314 | 34° | 42km/h | 14605m | 5.6m/s | -59.1°C | 4.2% | 0hPa | 0V | 00:00:00 | 00:00:00 | 00:00:00 | |
| KE7DJD | 2026-08-31 17:47:12 | 43.67905 | -116.11482 | 44° | 47km/h | 14503m | 6.8m/s | -59.5°C | 4.6% | 0hPa | 0V | 00:00:00 | 00:00:00 | 00:00:00 | |
| KE7DJD | 2026-08-31 17:46:52 | 43.67740 | -116.11676 | 34° | 44km/h | 14398m | 4.9m/s | -58.4°C | 4.5% | 0hPa | 0V | 00:00:00 | 00:00:00 | 00:00:00 | |
| KE7DJD | 2026-08-31 17:46:32 | 43.67554 | -116.11889 | 32° | 42km/h | 14302m | 4.1m/s | -58.8°C | 4.9% | 0hPa | 0V | 00:00:00 | 00:00:00 | 00:00:00 | |
| KE7DJD | 2026-08-31 17:46:11 | 43.67412 | -116.12109 | 57° | 44km/h | 14201m | 3.8m/s | -59.1°C | 5.4% | 0hPa | 0V | 00:00:00 | 00:00:00 | 00:00:00 | |
| KE7DJD | 2026-08-31 17:45:51 | 43.67271 | -116.12365 | 42° | 57km/h | 14094m | 4.1m/s | -59.1°C | 5.7% | 0hPa | 0V | 00:00:00 | 00:00:00 | 00:00:00 | |
| KE7DJD | 2026-08-31 17:45:28 | 43.67041 | -116.12662 | 44° | 57km/h | 13979m | 5.6m/s | -59.2°C | 6.2% | 0hPa | 0V | 00:00:00 | 00:00:00 | 00:00:00 | |
| KE7DJD | 2026-08-31 17:45:07 | 43.66804 | -116.12906 | 28° | 53km/h | 13882m | 6.7m/s | -60.0°C | 7.0% | 0hPa | 0V | 00:00:00 | 00:00:00 | 00:00:00 | |
| KE7DJD | 2026-08-31 17:44:46 | 43.66561 | -116.13048 | 30° | 40km/h | 13782m | 4.8m/s | -59.8°C | 7.5% | 0hPa | 0V | 00:00:00 | 00:00:00 | 00:00:00 | |
| KE7DJD | 2026-08-31 17:44:25 | 43.66369 | -116.13198 | 17° | 29km/h | 13685m | 4.9m/s | -59.8°C | 8.4% | 0hPa | 0V | 00:00:00 | 00:00:00 | 00:00:00 | |
| KE7DJD | 2026-08-31 17:44:04 | 43.66185 | -116.13338 | 27° | 35km/h | 13583m | 4.9m/s | -59.9°C | 10.2% | 0hPa | 0V | 00:00:00 | 00:00:00 | 00:00:00 | |
| KE7DJD | 2026-08-31 17:43:45 | 43.65982 | -116.13413 | 9° | 24km/h | 13485m | 3.8m/s | -59.5°C | 12.0% | 0hPa | 0V | 00:00:00 | 00:00:00 | 00:00:00 | |
| KE7DJD | 2026-08-31 17:43:24 | 43.65767 | -116.13482 | 17° | 31km/h | 13375m | 5.1m/s | -59.1°C | 15.2% | 0hPa | 0V | 00:00:00 | 00:00:00 | 00:00:00 | |
| KE7DJD | 2026-08-31 17:43:04 | 43.65636 | -116.13557 | 17° | 26km/h | 13280m | 4.1m/s | -60.7°C | 24.0% | 0hPa | 0V | 00:00:00 | 00:00:00 | 00:00:00 | |
| KE7DJD | 2026-08-31 17:42:44 | 43.65511 | -116.13640 | 20° | 33km/h | 13187m | 5.4m/s | -61.5°C | 29.3% | 0hPa | 0V | 00:00:00 | 00:00:00 | 00:00:00 | |
| KE7DJD | 2026-08-31 17:42:23 | 43.65341 | -116.13701 | 18° | 29km/h | 13092m | 5.3m/s | -61.6°C | 30.6% | 0hPa | 0V | 00:00:00 | 00:00:00 | 00:00:00 | |
| KE7DJD | 2026-08-31 17:42:03 | 43.65180 | -116.13725 | 12° | 37km/h | 13005m | 5.1m/s | -61.2°C | 32.3% | 0hPa | 0V | 00:00:00 | 00:00:00 | 00:00:00 | |
| KE7DJD | 2026-08-31 17:41:42 | 43.65033 | -116.13718 | 361° | 26km/h | 12877m | 6.0m/s | -60.6°C | 30.5% | 0hPa | 0V | 00:00:00 | 00:00:00 | 00:00:00 | |
| KE7DJD | 2026-08-31 17:41:22 | 43.64966 | -116.13693 | 347° | 16km/h | 12781m | 3.7m/s | -60.5°C | 32.1% | 0hPa | 0V | 00:00:00 | 00:00:00 | 00:00:00 | |
| KE7DJD | 2026-08-31 17:41:03 | 43.64897 | -116.13700 | 8° | 18km/h | 12688m | 5.6m/s | -59.9°C | 31.9% | 0hPa | 0V | 00:00:00 | 00:00:00 | 00:00:00 | |
| KE7DJD | 2026-08-31 17:40:41 | 43.64795 | -116.13692 | 355° | 26km/h | 12592m | 5.7m/s | -59.3°C | 31.0% | 0hPa | 0V | 00:00:00 | 00:00:00 | 00:00:00 | |
| KE7DJD | 2026-08-31 17:40:21 | 43.64676 | -116.13692 | 354° | 24km/h | 12500m | 5.6m/s | -58.6°C | 29.9% | 0hPa | 0V | 00:00:00 | 00:00:00 | 00:00:00 | |
| KE7DJD | 2026-08-31 17:40:00 | 43.64543 | -116.13660 | 339° | 29km/h | 12403m | 5.3m/s | -58.1°C | 29.2% | 0hPa | 0V | 00:00:00 | 00:00:00 | 00:00:00 | |
| KE7DJD | 2026-08-31 17:39:40 | 43.64420 | -116.13606 | 342° | 24km/h | 12311m | 5.5m/s | -57.5°C | 27.5% | 0hPa | 0V | 00:00:00 | 00:00:00 | 00:00:00 | |
| KE7DJD | 2026-08-31 17:39:21 | 43.64296 | -116.13540 | 340° | 40km/h | 12219m | 3.7m/s | -56.8°C | 26.5% | 0hPa | 0V | 00:00:00 | 00:00:00 | 00:00:00 | |
| KE7DJD | 2026-08-31 17:39:00 | 43.64172 | -116.13460 | 336° | 37km/h | 12129m | 4.1m/s | -56.0°C | 27.5% | 0hPa | 0V | 00:00:00 | 00:00:00 | 00:00:00 | |
| KE7DJD | 2026-08-31 17:38:39 | 43.64064 | -116.13384 | 351° | 15km/h | 12030m | 3.2m/s | -55.5°C | 29.7% | 0hPa | 0V | 00:00:00 | 00:00:00 | 00:00:00 | |
| KE7DJD | 2026-08-31 17:38:19 | 43.63971 | -116.13305 | 332° | 20km/h | 11939m | 4.1m/s | -54.9°C | 30.6% | 0hPa | 0V | 00:00:00 | 00:00:00 | 00:00:00 | |
| KE7DJD | 2026-08-31 17:37:58 | 43.63877 | -116.13229 | 347° | 22km/h | 11846m | 6.3m/s | -54.4°C | 32.2% | 0hPa | 0V | 00:00:00 | 00:00:00 | 00:00:00 | |
| KE7DJD | 2026-08-31 17:37:38 | 43.63751 | -116.13136 | 329° | 31km/h | 11753m | 4.1m/s | -54.2°C | 35.9% | 0hPa | 0V | 00:00:00 | 00:00:00 | 00:00:00 | |
| KE7DJD | 2026-08-31 17:37:17 | 43.63626 | -116.13032 | 345° | 26km/h | 11659m | 5.0m/s | -53.5°C | 36.0% | 0hPa | 0V | 00:00:00 | 00:00:00 | 00:00:00 | |
| KE7DJD | 2026-08-31 17:36:56 | 43.63508 | -116.12959 | 320° | 20km/h | 11565m | 3.4m/s | -52.9°C | 38.1% | 0hPa | 0V | 00:00:00 | 00:00:00 | 00:00:00 | |
| KE7DJD | 2026-08-31 17:36:35 | 43.63386 | -116.12878 | 356° | 11km/h | 11472m | 4.4m/s | -52.3°C | 37.0% | 0hPa | 0V | 00:00:00 | 00:00:00 | 00:00:00 | |
| KE7DJD | 2026-08-31 17:36:14 | 43.63279 | -116.12813 | 340° | 26km/h | 11381m | 4.0m/s | -51.5°C | 35.3% | 0hPa | 0V | 00:00:00 | 00:00:00 | 00:00:00 | |
| KE7DJD | 2026-08-31 17:35:53 | 43.63185 | -116.12743 | 358° | 22km/h | 11286m | 5.1m/s | -50.8°C | 36.5% | 0hPa | 0V | 00:00:00 | 00:00:00 | 00:00:00 | |
| KE7DJD | 2026-08-31 17:35:32 | 43.63102 | -116.12689 | 307° | 9km/h | 11194m | 4.2m/s | -50.0°C | 35.9% | 0hPa | 0V | 00:00:00 | 00:00:00 | 00:00:00 | |
| KE7DJD | 2026-08-31 17:35:12 | 43.63032 | -116.12655 | 358° | 16km/h | 11098m | 3.1m/s | -49.5°C | 35.0% | 0hPa | 0V | 00:00:00 | 00:00:00 | 00:00:00 | |
| KE7DJD | 2026-08-31 17:34:30 | 43.62903 | -116.12611 | 355° | 11km/h | 10905m | 4.9m/s | -47.9°C | 35.8% | 0hPa | 0V | 00:00:00 | 00:00:00 | 00:00:00 | |
| KE7DJD | 2026-08-31 17:34:09 | 43.62853 | -116.12601 | 4° | 11km/h | 10812m | 5.3m/s | -47.3°C | 38.0% | 0hPa | 0V | 00:00:00 | 00:00:00 | 00:00:00 | |
| KE7DJD | 2026-08-31 17:33:48 | 43.62792 | -116.12598 | 22° | 9km/h | 10717m | 5.6m/s | -46.5°C | 37.7% | 0hPa | 0V | 00:00:00 | 00:00:00 | 00:00:00 | |
| KE7DJD | 2026-08-31 17:33:27 | 43.62741 | -116.12591 | 35° | 7km/h | 10618m | 4.8m/s | -45.8°C | 38.3% | 0hPa | 0V | 00:00:00 | 00:00:00 | 00:00:00 | |
| KE7DJD | 2026-08-31 17:33:06 | 43.62694 | -116.12581 | 304° | 7km/h | 10522m | 4.1m/s | -44.8°C | 36.2% | 0hPa | 0V | 00:00:00 | 00:00:00 | 00:00:00 | |
| KE7DJD | 2026-08-31 17:32:46 | 43.62677 | -116.12569 | 264° | 5km/h | 10430m | 4.0m/s | -44.2°C | 36.2% | 0hPa | 0V | 00:00:00 | 00:00:00 | 00:00:00 | |
| KE7DJD | 2026-08-31 17:32:25 | 43.62668 | -116.12565 | 231° | 2km/h | 10332m | 5.5m/s | -43.4°C | 39.8% | 0hPa | 0V | 00:00:00 | 00:00:00 | 00:00:00 | |
| KE7DJD | 2026-08-31 17:32:04 | 43.62673 | -116.12566 | 146° | 7km/h | 10239m | 5.7m/s | -42.6°C | 39.5% | 0hPa | 0V | 00:00:00 | 00:00:00 | 00:00:00 | |
| KE7DJD | 2026-08-31 17:31:44 | 43.62680 | -116.12562 | 311° | 5km/h | 10149m | 4.5m/s | -42.0°C | 40.3% | 0hPa | 0V | 00:00:00 | 00:00:00 | 00:00:00 | |
| KE7DJD | 2026-08-31 17:31:23 | 43.62687 | -116.12570 | 46° | 9km/h | 10058m | 4.8m/s | -41.2°C | 48.5% | 0hPa | 0V | 00:00:00 | 00:00:00 | 00:00:00 | |
| KE7DJD | 2026-08-31 17:31:04 | 43.62690 | -116.12599 | 134° | 11km/h | 9968m | 4.1m/s | -40.6°C | 49.8% | 0hPa | 0V | 00:00:00 | 00:00:00 | 00:00:00 | |
| KE7DJD | 2026-08-31 17:30:43 | 43.62677 | -116.12630 | 117° | 11km/h | 9881m | 4.2m/s | -39.8°C | 47.6% | 0hPa | 0V | 00:00:00 | 00:00:00 | 00:00:00 | |
| KE7DJD | 2026-08-31 17:30:23 | 43.62651 | -116.12649 | 12° | 5km/h | 9787m | 4.5m/s | -39.0°C | 49.6% | 0hPa | 0V | 00:00:00 | 00:00:00 | 00:00:00 | |
| KE7DJD | 2026-08-31 17:29:41 | 43.62576 | -116.12643 | 3° | 22km/h | 9601m | 4.4m/s | -37.5°C | 44.3% | 0hPa | 0V | 00:00:00 | 00:00:00 | 00:00:00 | |
| KE7DJD | 2026-08-31 17:29:20 | 43.62520 | -116.12643 | 351° | 18km/h | 9506m | 5.2m/s | -36.5°C | 37.6% | 0hPa | 0V | 00:00:00 | 00:00:00 | 00:00:00 | |
| KE7DJD | 2026-08-31 17:28:59 | 43.62460 | -116.12655 | 3° | 15km/h | 9415m | 5.2m/s | -35.7°C | 35.2% | 0hPa | 0V | 00:00:00 | 00:00:00 | 00:00:00 | |
| KE7DJD | 2026-08-31 17:28:38 | 43.62396 | -116.12662 | 347° | 13km/h | 9322m | 4.2m/s | -34.8°C | 31.8% | 0hPa | 0V | 00:00:00 | 00:00:00 | 00:00:00 | |
| KE7DJD | 2026-08-31 17:28:17 | 43.62332 | -116.12672 | 356° | 15km/h | 9230m | 5.3m/s | -33.9°C | 28.4% | 0hPa | 0V | 00:00:00 | 00:00:00 | 00:00:00 | |
| KE7DJD | 2026-08-31 17:27:56 | 43.62279 | -116.12688 | 77° | 22km/h | 9122m | 6.5m/s | -33.0°C | 28.4% | 0hPa | 0V | 00:00:00 | 00:00:00 | 00:00:00 | |
| KE7DJD | 2026-08-31 17:27:35 | 43.62234 | -116.12683 | 14° | 16km/h | 8993m | 8.2m/s | -32.0°C | 27.2% | 0hPa | 0V | 00:00:00 | 00:00:00 | 00:00:00 | |
| KE7DJD | 2026-08-31 17:27:14 | 43.62129 | -116.12669 | 325° | 27km/h | 8898m | 2.9m/s | -31.2°C | 27.0% | 0hPa | 0V | 00:00:00 | 00:00:00 | 00:00:00 | |
| KE7DJD | 2026-08-31 17:26:53 | 43.62029 | -116.12653 | 12° | 31km/h | 8788m | 5.9m/s | -30.3°C | 29.2% | 0hPa | 0V | 00:00:00 | 00:00:00 | 00:00:00 | |
| KE7DJD | 2026-08-31 17:26:32 | 43.61909 | -116.12681 | 26° | 22km/h | 8686m | 5.0m/s | -29.4°C | 26.8% | 0hPa | 0V | 00:00:00 | 00:00:00 | 00:00:00 | |
| KE7DJD | 2026-08-31 17:26:11 | 43.61788 | -116.12717 | 33° | 26km/h | 8593m | 5.0m/s | -28.6°C | 23.9% | 0hPa | 0V | 00:00:00 | 00:00:00 | 00:00:00 | |
| KE7DJD | 2026-08-31 17:25:51 | 43.61675 | -116.12768 | 7° | 24km/h | 8499m | 5.0m/s | -28.0°C | 32.8% | 0hPa | 0V | 00:00:00 | 00:00:00 | 00:00:00 | |
| KE7DJD | 2026-08-31 17:25:30 | 43.61570 | -116.12856 | 17° | 11km/h | 8405m | 3.8m/s | -27.3°C | 27.6% | 0hPa | 0V | 00:00:00 | 00:00:00 | 00:00:00 | |
| KE7DJD | 2026-08-31 17:25:10 | 43.61474 | -116.12958 | 29° | 29km/h | 8321m | 4.7m/s | -26.7°C | 31.2% | 0hPa | 0V | 00:00:00 | 00:00:00 | 00:00:00 | |
| KE7DJD | 2026-08-31 17:24:49 | 43.61369 | -116.13077 | 41° | 26km/h | 8225m | 4.9m/s | -26.0°C | 33.8% | 0hPa | 0V | 00:00:00 | 00:00:00 | 00:00:00 | |
| KE7DJD | 2026-08-31 17:24:28 | 43.61253 | -116.13221 | 38° | 33km/h | 8130m | 4.6m/s | -25.3°C | 37.2% | 0hPa | 0V | 00:00:00 | 00:00:00 | 00:00:00 | |
| KE7DJD | 2026-08-31 17:24:07 | 43.61125 | -116.13355 | 65° | 27km/h | 8036m | 4.2m/s | -24.4°C | 37.3% | 0hPa | 0V | 00:00:00 | 00:00:00 | 00:00:00 | |
| KE7DJD | 2026-08-31 17:23:25 | 43.60896 | -116.13656 | 58° | 22km/h | 7852m | 3.4m/s | -22.9°C | 36.3% | 0hPa | 0V | 00:00:00 | 00:00:00 | 00:00:00 | |
| KE7DJD | 2026-08-31 17:23:05 | 43.60790 | -116.13798 | 38° | 29km/h | 7762m | 4.6m/s | -22.3°C | 38.7% | 0hPa | 0V | 00:00:00 | 00:00:00 | 00:00:00 | |
| KE7DJD | 2026-08-31 17:22:44 | 43.60683 | -116.13930 | 24° | 37km/h | 7667m | 3.3m/s | -21.7°C | 38.8% | 0hPa | 0V | 00:00:00 | 00:00:00 | 00:00:00 | |
| KE7DJD | 2026-08-31 17:22:24 | 43.60573 | -116.14066 | 53° | 33km/h | 7575m | 4.4m/s | -21.1°C | 39.6% | 0hPa | 0V | 00:00:00 | 00:00:00 | 00:00:00 | |
| KE7DJD | 2026-08-31 17:22:03 | 43.60472 | -116.14210 | 58° | 18km/h | 7487m | 4.8m/s | -20.7°C | 42.3% | 0hPa | 0V | 00:00:00 | 00:00:00 | 00:00:00 | |
| KE7DJD | 2026-08-31 17:21:42 | 43.60375 | -116.14368 | 47° | 40km/h | 7400m | 3.9m/s | -20.0°C | 41.9% | 0hPa | 0V | 00:00:00 | 00:00:00 | 00:00:00 | |
| KE7DJD | 2026-08-31 17:21:21 | 43.60279 | -116.14522 | 36° | 38km/h | 7314m | 3.8m/s | -19.4°C | 41.2% | 0hPa | 0V | 00:00:00 | 00:00:00 | 00:00:00 | |
| KE7DJD | 2026-08-31 17:21:00 | 43.60153 | -116.14666 | 45° | 33km/h | 7230m | 4.5m/s | -18.9°C | 41.5% | 0hPa | 0V | 00:00:00 | 00:00:00 | 00:00:00 | |
| KE7DJD | 2026-08-31 17:20:41 | 43.60030 | -116.14806 | 66° | 31km/h | 7149m | 3.8m/s | -18.3°C | 40.8% | 0hPa | 0V | 00:00:00 | 00:00:00 | 00:00:00 | |
| KE7DJD | 2026-08-31 17:20:19 | 43.59920 | -116.14947 | 7° | 26km/h | 7058m | 2.3m/s | -17.9°C | 40.4% | 0hPa | 0V | 00:00:00 | 00:00:00 | 00:00:00 | |
| KE7DJD | 2026-08-31 17:19:58 | 43.59808 | -116.15086 | 55° | 20km/h | 6942m | 4.5m/s | -17.0°C | 37.4% | 0hPa | 0V | 00:00:00 | 00:00:00 | 00:00:00 | |
| KE7DJD | 2026-08-31 17:19:37 | 43.59682 | -116.15258 | 36° | 24km/h | 6848m | 5.2m/s | -16.3°C | 36.8% | 0hPa | 0V | 00:00:00 | 00:00:00 | 00:00:00 | |
| KE7DJD | 2026-08-31 17:19:16 | 43.59555 | -116.15416 | 48° | 46km/h | 6741m | 5.7m/s | -15.3°C | 35.5% | 0hPa | 0V | 00:00:00 | 00:00:00 | 00:00:00 | |
| KE7DJD | 2026-08-31 17:18:55 | 43.59439 | -116.15588 | 40° | 46km/h | 6629m | 6.2m/s | -14.9°C | 41.3% | 0hPa | 0V | 00:00:00 | 00:00:00 | 00:00:00 | |
| KE7DJD | 2026-08-31 17:18:34 | 43.59292 | -116.15779 | 2° | 33km/h | 6505m | 4.1m/s | -14.4°C | 42.1% | 0hPa | 0V | 00:00:00 | 00:00:00 | 00:00:00 | |
| KE7DJD | 2026-08-31 17:18:14 | 43.59178 | -116.15931 | 71° | 16km/h | 6396m | 5.8m/s | -13.7°C | 39.9% | 0hPa | 0V | 00:00:00 | 00:00:00 | 00:00:00 | |
| KE7DJD | 2026-08-31 17:17:53 | 43.59069 | -116.16046 | 355° | 22km/h | 6290m | 4.3m/s | -13.4°C | 43.5% | 0hPa | 0V | 00:00:00 | 00:00:00 | 00:00:00 | |
| KE7DJD | 2026-08-31 17:17:33 | 43.58965 | -116.16124 | 356° | 11km/h | 6201m | 3.5m/s | -12.7°C | 41.7% | 0hPa | 0V | 00:00:00 | 00:00:00 | 00:00:00 | |
| KE7DJD | 2026-08-31 17:17:12 | 43.58841 | -116.16233 | 42° | 31km/h | 6102m | 7.7m/s | -11.9°C | 39.5% | 0hPa | 0V | 00:00:00 | 00:00:00 | 00:00:00 | |
| KE7DJD | 2026-08-31 17:16:53 | 43.58777 | -116.16334 | 46° | 44km/h | 5972m | 5.2m/s | -10.8°C | 38.4% | 0hPa | 0V | 00:00:00 | 00:00:00 | 00:00:00 | |
| KE7DJD | 2026-08-31 17:16:32 | 43.58682 | -116.16503 | 87° | 24km/h | 5862m | 6.1m/s | -10.7°C | 41.8% | 0hPa | 0V | 00:00:00 | 00:00:00 | 00:00:00 | |
| KE7DJD | 2026-08-31 17:16:11 | 43.58596 | -116.16643 | 50° | 20km/h | 5749m | 5.1m/s | -10.0°C | 41.1% | 0hPa | 0V | 00:00:00 | 00:00:00 | 00:00:00 | |
| KE7DJD | 2026-08-31 17:15:52 | 43.58512 | -116.16766 | 30° | 42km/h | 5634m | 5.0m/s | -9.3°C | 41.9% | 0hPa | 0V | 00:00:00 | 00:00:00 | 00:00:00 | |
| KE7DJD | 2026-08-31 17:15:31 | 43.58422 | -116.16967 | 33° | 38km/h | 5513m | 3.7m/s | -8.4°C | 42.5% | 0hPa | 0V | 00:00:00 | 00:00:00 | 00:00:00 | |
| KE7DJD | 2026-08-31 17:15:10 | 43.58355 | -116.17132 | 106° | 22km/h | 5389m | 6.2m/s | -7.4°C | 41.3% | 0hPa | 0V | 00:00:00 | 00:00:00 | 00:00:00 | |
| KE7DJD | 2026-08-31 17:14:50 | 43.58306 | -116.17335 | 41° | 38km/h | 5268m | 5.8m/s | -6.5°C | 41.3% | 0hPa | 0V | 00:00:00 | 00:00:00 | 00:00:00 | |
| KE7DJD | 2026-08-31 17:14:29 | 43.58245 | -116.17527 | 94° | 38km/h | 5148m | 6.0m/s | -5.7°C | 40.8% | 0hPa | 0V | 00:00:00 | 00:00:00 | 00:00:00 | |
| KE7DJD | 2026-08-31 17:14:08 | 43.58170 | -116.17744 | 48° | 15km/h | 5028m | 5.5m/s | -4.7°C | 40.0% | 0hPa | 0V | 00:00:00 | 00:00:00 | 00:00:00 | |
| KE7DJD | 2026-08-31 17:13:48 | 43.58097 | -116.17947 | 101° | 29km/h | 4918m | 4.7m/s | -3.8°C | 39.7% | 0hPa | 0V | 00:00:00 | 00:00:00 | 00:00:00 | |
| KE7DJD | 2026-08-31 17:13:27 | 43.58071 | -116.18159 | 43° | 42km/h | 4809m | 6.6m/s | -2.9°C | 38.8% | 0hPa | 0V | 00:00:00 | 00:00:00 | 00:00:00 | |
| KE7DJD | 2026-08-31 17:13:06 | 43.58008 | -116.18331 | 37° | 33km/h | 4687m | 5.5m/s | -1.8°C | 36.4% | 0hPa | 0V | 00:00:00 | 00:00:00 | 00:00:00 | |
| KE7DJD | 2026-08-31 17:12:45 | 43.57974 | -116.18529 | 93° | 40km/h | 4559m | 6.7m/s | -0.8°C | 35.3% | 0hPa | 0V | 00:00:00 | 00:00:00 | 00:00:00 | |
| KE7DJD | 2026-08-31 17:12:25 | 43.57912 | -116.18770 | 58° | 51km/h | 4442m | 5.4m/s | -0.1°C | 27.1% | 0hPa | 0V | 00:00:00 | 00:00:00 | 00:00:00 | |
| KE7DJD | 2026-08-31 17:12:04 | 43.57838 | -116.19019 | 101° | 29km/h | 4316m | 7.0m/s | 0.4°C | 29.3% | 0hPa | 0V | 00:00:00 | 00:00:00 | 00:00:00 | |
| KE7DJD | 2026-08-31 17:11:43 | 43.57794 | -116.19304 | 47° | 35km/h | 4198m | 7.3m/s | 1.1°C | 16.4% | 0hPa | 0V | 00:00:00 | 00:00:00 | 00:00:00 | |
| KE7DJD | 2026-08-31 17:11:22 | 43.57688 | -116.19549 | 45° | 49km/h | 4076m | 4.2m/s | 0.9°C | 19.9% | 0hPa | 0V | 00:00:00 | 00:00:00 | 00:00:00 | |
| KE7DJD | 2026-08-31 17:10:41 | 43.57559 | -116.19897 | 85° | 20km/h | 3855m | 5.2m/s | 2.1°C | 30.1% | 0hPa | 0V | 00:00:00 | 00:00:00 | 00:00:00 | |
| KE7DJD | 2026-08-31 17:10:21 | 43.57497 | -116.20030 | 64° | 7km/h | 3742m | 6.3m/s | 2.7°C | 34.8% | 0hPa | 0V | 00:00:00 | 00:00:00 | 00:00:00 | |
| KE7DJD | 2026-08-31 17:10:00 | 43.57484 | -116.20255 | 128° | 27km/h | 3624m | 4.3m/s | 3.4°C | 45.8% | 0hPa | 0V | 00:00:00 | 00:00:00 | 00:00:00 | |
| KE7DJD | 2026-08-31 17:09:40 | 43.57477 | -116.20468 | 66° | 37km/h | 3514m | 6.0m/s | 4.1°C | 46.6% | 0hPa | 0V | 00:00:00 | 00:00:00 | 00:00:00 | |
| KE7DJD | 2026-08-31 17:09:21 | 43.57481 | -116.20663 | 85° | 40km/h | 3401m | 4.8m/s | 4.8°C | 39.1% | 0hPa | 0V | 00:00:00 | 00:00:00 | 00:00:00 | |
| KE7DJD | 2026-08-31 17:08:59 | 43.57476 | -116.20834 | 134° | 11km/h | 3289m | 5.2m/s | 5.7°C | 34.9% | 0hPa | 0V | 00:00:00 | 00:00:00 | 00:00:00 | |
| KE7DJD | 2026-08-31 17:08:39 | 43.57458 | -116.20986 | 103° | 16km/h | 3172m | 5.5m/s | 6.7°C | 33.8% | 0hPa | 0V | 00:00:00 | 00:00:00 | 00:00:00 | |
| KE7DJD | 2026-08-31 17:08:19 | 43.57387 | -116.21151 | 32° | 35km/h | 3050m | 7.5m/s | 7.6°C | 28.3% | 0hPa | 0V | 00:00:00 | 00:00:00 | 00:00:00 | |
| KE7DJD | 2026-08-31 17:07:58 | 43.57303 | -116.21291 | 6° | 24km/h | 2933m | 5.8m/s | 8.6°C | 35.1% | 0hPa | 0V | 00:00:00 | 00:00:00 | 00:00:00 | |
| KE7DJD | 2026-08-31 17:07:37 | 43.57257 | -116.21425 | 67° | 37km/h | 2811m | 5.8m/s | 9.8°C | 24.7% | 0hPa | 0V | 00:00:00 | 00:00:00 | 00:00:00 | |
| KE7DJD | 2026-08-31 17:07:16 | 43.57219 | -116.21542 | 72° | 33km/h | 2693m | 5.3m/s | 10.9°C | 22.8% | 0hPa | 0V | 00:00:00 | 00:00:00 | 00:00:00 | |
| KE7DJD | 2026-08-31 17:06:55 | 43.57207 | -116.21634 | 150° | 18km/h | 2577m | 5.6m/s | 11.8°C | 10.6% | 0hPa | 0V | 00:00:00 | 00:00:00 | 00:00:00 | |
| KE7DJD | 2026-08-31 17:06:35 | 43.57184 | -116.21699 | 322° | 9km/h | 2469m | 4.9m/s | 11.7°C | 14.9% | 0hPa | 0V | 00:00:00 | 00:00:00 | 00:00:00 | |
| KE7DJD | 2026-08-31 17:06:14 | 43.57169 | -116.21725 | 203° | 13km/h | 2366m | 4.7m/s | 12.3°C | 16.4% | 0hPa | 0V | 00:00:00 | 00:00:00 | 00:00:00 | |
| KE7DJD | 2026-08-31 17:05:54 | 43.57166 | -116.21712 | 10° | 20km/h | 2252m | 5.0m/s | 12.6°C | 18.3% | 0hPa | 0V | 00:00:00 | 00:00:00 | 00:00:00 | |
| KE7DJD | 2026-08-31 17:05:34 | 43.57126 | -116.21722 | 112° | 7km/h | 2149m | 4.7m/s | 13.2°C | 20.9% | 0hPa | 0V | 00:00:00 | 00:00:00 | 00:00:00 | |
| KE7DJD | 2026-08-31 17:05:13 | 43.57084 | -116.21685 | 245° | 9km/h | 2027m | 4.4m/s | 14.1°C | 23.1% | 0hPa | 0V | 00:00:00 | 00:00:00 | 00:00:00 | |
| KE7DJD | 2026-08-31 17:04:53 | 43.57025 | -116.21617 | 294° | 27km/h | 1914m | 6.8m/s | 14.8°C | 23.8% | 0hPa | 0V | 00:00:00 | 00:00:00 | 00:00:00 | |
| KE7DJD | 2026-08-31 17:04:32 | 43.56984 | -116.21535 | 288° | 31km/h | 1796m | 5.8m/s | 15.4°C | 24.2% | 0hPa | 0V | 00:00:00 | 00:00:00 | 00:00:00 | |
| KE7DJD | 2026-08-31 17:04:12 | 43.56949 | -116.21475 | 280° | 24km/h | 1678m | 5.4m/s | 15.5°C | 16.1% | 0hPa | 0V | 00:00:00 | 00:00:00 | 00:00:00 | |
| KE7DJD | 2026-08-31 17:03:52 | 43.56896 | -116.21387 | 337° | 26km/h | 1571m | 5.7m/s | 16.0°C | 0% | 0hPa | 0V | 00:00:00 | 00:00:00 | 00:00:00 | |
| KE7DJD | 2026-08-31 17:03:32 | 43.56863 | -116.21354 | 217° | 11km/h | 1462m | 6.0m/s | 0°C | 0% | 0hPa | 0V | 00:00:00 | 00:00:00 | 00:00:00 |